<?xml version="1.0" encoding="UTF-8" standalone="no" ?>
<gpx xmlns="http://www.topografix.com/GPX/1/1" xmlns:xsi="http://www.w3.org/2001/XMLSchema-instance" xsi:schemaLocation="http://www.topografix.com/GPX/1/1 http://www.topografix.com/GPX/1/1/gpx.xsd" version="1.1" creator="VisuGPX - https://www.visugpx.com">
  <metadata>
    <name>Boucle de midi dans Bois de Serre</name>
    <desc><![CDATA[Boucle de midi dans Bois de Serre]]></desc>
  </metadata>
  <trk>
    <name><![CDATA[2011-08-26T10:13:01Z]]></name>
    <trkseg>
      <trkpt lat="45.80168" lon="4.76983">
        <ele>304.8752441</ele>
        <time>2011-08-26T10:13:01Z</time>
      </trkpt>
      <trkpt lat="45.80153" lon="4.76996">
        <ele>306.3172607</ele>
        <time>2011-08-26T10:13:07Z</time>
      </trkpt>
      <trkpt lat="45.80148" lon="4.77008">
        <ele>306.7978516</ele>
        <time>2011-08-26T10:13:10Z</time>
      </trkpt>
      <trkpt lat="45.80136" lon="4.77026">
        <ele>308.720459</ele>
        <time>2011-08-26T10:13:16Z</time>
      </trkpt>
      <trkpt lat="45.80123" lon="4.7704">
        <ele>309.6818848</ele>
        <time>2011-08-26T10:13:21Z</time>
      </trkpt>
      <trkpt lat="45.80115" lon="4.77041">
        <ele>310.1624756</ele>
        <time>2011-08-26T10:13:23Z</time>
      </trkpt>
      <trkpt lat="45.80088" lon="4.77023">
        <ele>312.0852051</ele>
        <time>2011-08-26T10:13:28Z</time>
      </trkpt>
      <trkpt lat="45.80079" lon="4.77016">
        <ele>312.0852051</ele>
        <time>2011-08-26T10:13:30Z</time>
      </trkpt>
      <trkpt lat="45.80069" lon="4.77007">
        <ele>313.0465088</ele>
        <time>2011-08-26T10:13:32Z</time>
      </trkpt>
      <trkpt lat="45.80039" lon="4.76988">
        <ele>321.2177734</ele>
        <time>2011-08-26T10:13:38Z</time>
      </trkpt>
      <trkpt lat="45.80024" lon="4.7698">
        <ele>326.0241699</ele>
        <time>2011-08-26T10:13:41Z</time>
      </trkpt>
      <trkpt lat="45.8001" lon="4.76972">
        <ele>327.9467773</ele>
        <time>2011-08-26T10:13:45Z</time>
      </trkpt>
      <trkpt lat="45.80004" lon="4.76956">
        <ele>320.2563477</ele>
        <time>2011-08-26T10:13:50Z</time>
      </trkpt>
      <trkpt lat="45.80003" lon="4.76953">
        <ele>319.2950439</ele>
        <time>2011-08-26T10:13:51Z</time>
      </trkpt>
      <trkpt lat="45.79992" lon="4.76933">
        <ele>316.4110107</ele>
        <time>2011-08-26T10:13:57Z</time>
      </trkpt>
      <trkpt lat="45.7998" lon="4.76922">
        <ele>314.9691162</ele>
        <time>2011-08-26T10:14:02Z</time>
      </trkpt>
      <trkpt lat="45.79966" lon="4.76908">
        <ele>314.4884033</ele>
        <time>2011-08-26T10:14:08Z</time>
      </trkpt>
      <trkpt lat="45.79947" lon="4.76894">
        <ele>316.8917236</ele>
        <time>2011-08-26T10:14:14Z</time>
      </trkpt>
      <trkpt lat="45.79932" lon="4.76885">
        <ele>316.4110107</ele>
        <time>2011-08-26T10:14:19Z</time>
      </trkpt>
      <trkpt lat="45.7992" lon="4.76872">
        <ele>314.9691162</ele>
        <time>2011-08-26T10:14:24Z</time>
      </trkpt>
      <trkpt lat="45.79904" lon="4.76861">
        <ele>318.3336182</ele>
        <time>2011-08-26T10:14:29Z</time>
      </trkpt>
      <trkpt lat="45.79888" lon="4.7685">
        <ele>322.1789551</ele>
        <time>2011-08-26T10:14:34Z</time>
      </trkpt>
      <trkpt lat="45.79874" lon="4.76838">
        <ele>323.1403809</ele>
        <time>2011-08-26T10:14:39Z</time>
      </trkpt>
      <trkpt lat="45.79859" lon="4.76827">
        <ele>324.5822754</ele>
        <time>2011-08-26T10:14:44Z</time>
      </trkpt>
      <trkpt lat="45.79836" lon="4.76812">
        <ele>329.388916</ele>
        <time>2011-08-26T10:14:51Z</time>
      </trkpt>
      <trkpt lat="45.79823" lon="4.76802">
        <ele>331.3115234</ele>
        <time>2011-08-26T10:14:56Z</time>
      </trkpt>
      <trkpt lat="45.79815" lon="4.76787">
        <ele>327.9467773</ele>
        <time>2011-08-26T10:15:01Z</time>
      </trkpt>
      <trkpt lat="45.79806" lon="4.76775">
        <ele>323.6209717</ele>
        <time>2011-08-26T10:15:06Z</time>
      </trkpt>
      <trkpt lat="45.79791" lon="4.76765">
        <ele>324.1015625</ele>
        <time>2011-08-26T10:15:11Z</time>
      </trkpt>
      <trkpt lat="45.79773" lon="4.76749">
        <ele>330.8309326</ele>
        <time>2011-08-26T10:15:16Z</time>
      </trkpt>
      <trkpt lat="45.79755" lon="4.76735">
        <ele>333.2341309</ele>
        <time>2011-08-26T10:15:22Z</time>
      </trkpt>
      <trkpt lat="45.79741" lon="4.76726">
        <ele>332.75354</ele>
        <time>2011-08-26T10:15:27Z</time>
      </trkpt>
      <trkpt lat="45.79729" lon="4.76712">
        <ele>329.8695068</ele>
        <time>2011-08-26T10:15:33Z</time>
      </trkpt>
      <trkpt lat="45.79715" lon="4.767">
        <ele>327.4661865</ele>
        <time>2011-08-26T10:15:39Z</time>
      </trkpt>
      <trkpt lat="45.79697" lon="4.76683">
        <ele>326.9855957</ele>
        <time>2011-08-26T10:15:46Z</time>
      </trkpt>
      <trkpt lat="45.79682" lon="4.76666">
        <ele>324.5822754</ele>
        <time>2011-08-26T10:15:53Z</time>
      </trkpt>
      <trkpt lat="45.79669" lon="4.76655">
        <ele>321.6983643</ele>
        <time>2011-08-26T10:15:59Z</time>
      </trkpt>
      <trkpt lat="45.79655" lon="4.76643">
        <ele>321.2177734</ele>
        <time>2011-08-26T10:16:05Z</time>
      </trkpt>
      <trkpt lat="45.79648" lon="4.76635">
        <ele>320.2563477</ele>
        <time>2011-08-26T10:16:09Z</time>
      </trkpt>
      <trkpt lat="45.79649" lon="4.76627">
        <ele>314.4884033</ele>
        <time>2011-08-26T10:16:13Z</time>
      </trkpt>
      <trkpt lat="45.79635" lon="4.76618">
        <ele>310.6430664</ele>
        <time>2011-08-26T10:16:19Z</time>
      </trkpt>
      <trkpt lat="45.79622" lon="4.76604">
        <ele>308.720459</ele>
        <time>2011-08-26T10:16:25Z</time>
      </trkpt>
      <trkpt lat="45.79604" lon="4.76588">
        <ele>308.720459</ele>
        <time>2011-08-26T10:16:32Z</time>
      </trkpt>
      <trkpt lat="45.79588" lon="4.76572">
        <ele>309.2011719</ele>
        <time>2011-08-26T10:16:39Z</time>
      </trkpt>
      <trkpt lat="45.79576" lon="4.76562">
        <ele>309.6818848</ele>
        <time>2011-08-26T10:16:44Z</time>
      </trkpt>
      <trkpt lat="45.79561" lon="4.76554">
        <ele>308.720459</ele>
        <time>2011-08-26T10:16:50Z</time>
      </trkpt>
      <trkpt lat="45.79544" lon="4.76549">
        <ele>308.2398682</ele>
        <time>2011-08-26T10:16:56Z</time>
      </trkpt>
      <trkpt lat="45.79526" lon="4.76546">
        <ele>308.2398682</ele>
        <time>2011-08-26T10:17:02Z</time>
      </trkpt>
      <trkpt lat="45.79509" lon="4.76542">
        <ele>308.720459</ele>
        <time>2011-08-26T10:17:08Z</time>
      </trkpt>
      <trkpt lat="45.79495" lon="4.76541">
        <ele>308.720459</ele>
        <time>2011-08-26T10:17:13Z</time>
      </trkpt>
      <trkpt lat="45.79479" lon="4.76538">
        <ele>308.2398682</ele>
        <time>2011-08-26T10:17:19Z</time>
      </trkpt>
      <trkpt lat="45.79464" lon="4.76537">
        <ele>308.2398682</ele>
        <time>2011-08-26T10:17:24Z</time>
      </trkpt>
      <trkpt lat="45.79447" lon="4.76538">
        <ele>308.2398682</ele>
        <time>2011-08-26T10:17:30Z</time>
      </trkpt>
      <trkpt lat="45.7943" lon="4.76541">
        <ele>308.720459</ele>
        <time>2011-08-26T10:17:36Z</time>
      </trkpt>
      <trkpt lat="45.79413" lon="4.76544">
        <ele>308.720459</ele>
        <time>2011-08-26T10:17:42Z</time>
      </trkpt>
      <trkpt lat="45.79397" lon="4.76548">
        <ele>309.6818848</ele>
        <time>2011-08-26T10:17:47Z</time>
      </trkpt>
      <trkpt lat="45.79382" lon="4.76553">
        <ele>310.6430664</ele>
        <time>2011-08-26T10:17:52Z</time>
      </trkpt>
      <trkpt lat="45.79367" lon="4.76558">
        <ele>310.6430664</ele>
        <time>2011-08-26T10:17:57Z</time>
      </trkpt>
      <trkpt lat="45.79346" lon="4.76565">
        <ele>311.6044922</ele>
        <time>2011-08-26T10:18:04Z</time>
      </trkpt>
      <trkpt lat="45.7933" lon="4.76571">
        <ele>312.0852051</ele>
        <time>2011-08-26T10:18:09Z</time>
      </trkpt>
      <trkpt lat="45.7931" lon="4.76578">
        <ele>313.0465088</ele>
        <time>2011-08-26T10:18:16Z</time>
      </trkpt>
      <trkpt lat="45.79291" lon="4.76583">
        <ele>312.5657959</ele>
        <time>2011-08-26T10:18:22Z</time>
      </trkpt>
      <trkpt lat="45.79277" lon="4.76584">
        <ele>309.6818848</ele>
        <time>2011-08-26T10:18:28Z</time>
      </trkpt>
      <trkpt lat="45.79259" lon="4.76586">
        <ele>307.7592773</ele>
        <time>2011-08-26T10:18:34Z</time>
      </trkpt>
      <trkpt lat="45.79246" lon="4.7659">
        <ele>307.2785645</ele>
        <time>2011-08-26T10:18:39Z</time>
      </trkpt>
      <trkpt lat="45.79228" lon="4.76594">
        <ele>308.2398682</ele>
        <time>2011-08-26T10:18:45Z</time>
      </trkpt>
      <trkpt lat="45.79213" lon="4.76599">
        <ele>309.6818848</ele>
        <time>2011-08-26T10:18:50Z</time>
      </trkpt>
      <trkpt lat="45.79196" lon="4.76602">
        <ele>309.6818848</ele>
        <time>2011-08-26T10:18:56Z</time>
      </trkpt>
      <trkpt lat="45.79179" lon="4.76607">
        <ele>310.1624756</ele>
        <time>2011-08-26T10:19:02Z</time>
      </trkpt>
      <trkpt lat="45.79165" lon="4.76607">
        <ele>310.1624756</ele>
        <time>2011-08-26T10:19:07Z</time>
      </trkpt>
      <trkpt lat="45.7915" lon="4.76608">
        <ele>309.2011719</ele>
        <time>2011-08-26T10:19:13Z</time>
      </trkpt>
      <trkpt lat="45.79132" lon="4.7661">
        <ele>309.6818848</ele>
        <time>2011-08-26T10:19:19Z</time>
      </trkpt>
      <trkpt lat="45.79119" lon="4.76612">
        <ele>308.720459</ele>
        <time>2011-08-26T10:19:24Z</time>
      </trkpt>
      <trkpt lat="45.79102" lon="4.76616">
        <ele>308.2398682</ele>
        <time>2011-08-26T10:19:30Z</time>
      </trkpt>
      <trkpt lat="45.79085" lon="4.7662">
        <ele>307.7592773</ele>
        <time>2011-08-26T10:19:36Z</time>
      </trkpt>
      <trkpt lat="45.79068" lon="4.76627">
        <ele>306.7978516</ele>
        <time>2011-08-26T10:19:42Z</time>
      </trkpt>
      <trkpt lat="45.79051" lon="4.7663">
        <ele>305.355957</ele>
        <time>2011-08-26T10:19:48Z</time>
      </trkpt>
      <trkpt lat="45.79038" lon="4.76632">
        <ele>304.8752441</ele>
        <time>2011-08-26T10:19:53Z</time>
      </trkpt>
      <trkpt lat="45.79024" lon="4.76633">
        <ele>304.8752441</ele>
        <time>2011-08-26T10:19:58Z</time>
      </trkpt>
      <trkpt lat="45.79014" lon="4.76617">
        <ele>303.4332275</ele>
        <time>2011-08-26T10:20:03Z</time>
      </trkpt>
      <trkpt lat="45.79008" lon="4.76591">
        <ele>302.4719238</ele>
        <time>2011-08-26T10:20:09Z</time>
      </trkpt>
      <trkpt lat="45.79003" lon="4.76575">
        <ele>302.4719238</ele>
        <time>2011-08-26T10:20:13Z</time>
      </trkpt>
      <trkpt lat="45.79001" lon="4.7657">
        <ele>302.9525146</ele>
        <time>2011-08-26T10:20:15Z</time>
      </trkpt>
      <trkpt lat="45.78988" lon="4.7657">
        <ele>303.4332275</ele>
        <time>2011-08-26T10:20:20Z</time>
      </trkpt>
      <trkpt lat="45.78972" lon="4.76576">
        <ele>303.9139404</ele>
        <time>2011-08-26T10:20:25Z</time>
      </trkpt>
      <trkpt lat="45.78957" lon="4.76581">
        <ele>301.991333</ele>
        <time>2011-08-26T10:20:30Z</time>
      </trkpt>
      <trkpt lat="45.78944" lon="4.76585">
        <ele>301.5106201</ele>
        <time>2011-08-26T10:20:35Z</time>
      </trkpt>
      <trkpt lat="45.7893" lon="4.7659">
        <ele>299.1072998</ele>
        <time>2011-08-26T10:20:40Z</time>
      </trkpt>
      <trkpt lat="45.78915" lon="4.76593">
        <ele>298.1461182</ele>
        <time>2011-08-26T10:20:45Z</time>
      </trkpt>
      <trkpt lat="45.78902" lon="4.76599">
        <ele>298.626709</ele>
        <time>2011-08-26T10:20:49Z</time>
      </trkpt>
      <trkpt lat="45.78885" lon="4.76603">
        <ele>299.1072998</ele>
        <time>2011-08-26T10:20:54Z</time>
      </trkpt>
      <trkpt lat="45.78873" lon="4.76606">
        <ele>298.626709</ele>
        <time>2011-08-26T10:20:58Z</time>
      </trkpt>
      <trkpt lat="45.78861" lon="4.76611">
        <ele>299.1072998</ele>
        <time>2011-08-26T10:21:02Z</time>
      </trkpt>
      <trkpt lat="45.78849" lon="4.76612">
        <ele>299.5880127</ele>
        <time>2011-08-26T10:21:06Z</time>
      </trkpt>
      <trkpt lat="45.78834" lon="4.76607">
        <ele>299.5880127</ele>
        <time>2011-08-26T10:21:11Z</time>
      </trkpt>
      <trkpt lat="45.78831" lon="4.76601">
        <ele>298.626709</ele>
        <time>2011-08-26T10:21:13Z</time>
      </trkpt>
      <trkpt lat="45.78835" lon="4.76583">
        <ele>296.7041016</ele>
        <time>2011-08-26T10:21:17Z</time>
      </trkpt>
      <trkpt lat="45.78843" lon="4.76568">
        <ele>295.2619629</ele>
        <time>2011-08-26T10:21:21Z</time>
      </trkpt>
      <trkpt lat="45.78845" lon="4.76565">
        <ele>294.3007813</ele>
        <time>2011-08-26T10:21:22Z</time>
      </trkpt>
      <trkpt lat="45.78856" lon="4.76542">
        <ele>291.416748</ele>
        <time>2011-08-26T10:21:28Z</time>
      </trkpt>
      <trkpt lat="45.78861" lon="4.7652">
        <ele>294.3007813</ele>
        <time>2011-08-26T10:21:33Z</time>
      </trkpt>
      <trkpt lat="45.78868" lon="4.76493">
        <ele>297.1846924</ele>
        <time>2011-08-26T10:21:39Z</time>
      </trkpt>
      <trkpt lat="45.78875" lon="4.76481">
        <ele>299.1072998</ele>
        <time>2011-08-26T10:21:43Z</time>
      </trkpt>
      <trkpt lat="45.78881" lon="4.76461">
        <ele>301.5106201</ele>
        <time>2011-08-26T10:21:48Z</time>
      </trkpt>
      <trkpt lat="45.78884" lon="4.76439">
        <ele>301.991333</ele>
        <time>2011-08-26T10:21:53Z</time>
      </trkpt>
      <trkpt lat="45.78888" lon="4.76419">
        <ele>304.3946533</ele>
        <time>2011-08-26T10:21:58Z</time>
      </trkpt>
      <trkpt lat="45.78891" lon="4.76408">
        <ele>304.3946533</ele>
        <time>2011-08-26T10:22:01Z</time>
      </trkpt>
      <trkpt lat="45.78896" lon="4.76387">
        <ele>304.8752441</ele>
        <time>2011-08-26T10:22:07Z</time>
      </trkpt>
      <trkpt lat="45.78898" lon="4.76367">
        <ele>305.355957</ele>
        <time>2011-08-26T10:22:12Z</time>
      </trkpt>
      <trkpt lat="45.78902" lon="4.76345">
        <ele>306.7978516</ele>
        <time>2011-08-26T10:22:18Z</time>
      </trkpt>
      <trkpt lat="45.78903" lon="4.76341">
        <ele>307.2785645</ele>
        <time>2011-08-26T10:22:19Z</time>
      </trkpt>
      <trkpt lat="45.78917" lon="4.76322">
        <ele>307.7592773</ele>
        <time>2011-08-26T10:22:26Z</time>
      </trkpt>
      <trkpt lat="45.78929" lon="4.76315">
        <ele>306.7978516</ele>
        <time>2011-08-26T10:22:30Z</time>
      </trkpt>
      <trkpt lat="45.78941" lon="4.76309">
        <ele>305.355957</ele>
        <time>2011-08-26T10:22:34Z</time>
      </trkpt>
      <trkpt lat="45.78947" lon="4.76307">
        <ele>304.8752441</ele>
        <time>2011-08-26T10:22:36Z</time>
      </trkpt>
      <trkpt lat="45.7896" lon="4.76299">
        <ele>302.9525146</ele>
        <time>2011-08-26T10:22:40Z</time>
      </trkpt>
      <trkpt lat="45.78975" lon="4.76296">
        <ele>299.5880127</ele>
        <time>2011-08-26T10:22:45Z</time>
      </trkpt>
      <trkpt lat="45.78991" lon="4.76292">
        <ele>297.6654053</ele>
        <time>2011-08-26T10:22:50Z</time>
      </trkpt>
      <trkpt lat="45.79007" lon="4.76288">
        <ele>295.7426758</ele>
        <time>2011-08-26T10:22:55Z</time>
      </trkpt>
      <trkpt lat="45.79012" lon="4.76286">
        <ele>294.7813721</ele>
        <time>2011-08-26T10:22:57Z</time>
      </trkpt>
      <trkpt lat="45.79029" lon="4.7628">
        <ele>294.3007813</ele>
        <time>2011-08-26T10:23:02Z</time>
      </trkpt>
      <trkpt lat="45.79045" lon="4.76275">
        <ele>296.2235107</ele>
        <time>2011-08-26T10:23:07Z</time>
      </trkpt>
      <trkpt lat="45.79055" lon="4.76268">
        <ele>297.1846924</ele>
        <time>2011-08-26T10:23:11Z</time>
      </trkpt>
      <trkpt lat="45.79065" lon="4.76259">
        <ele>299.5880127</ele>
        <time>2011-08-26T10:23:16Z</time>
      </trkpt>
      <trkpt lat="45.79079" lon="4.76254">
        <ele>298.1461182</ele>
        <time>2011-08-26T10:23:21Z</time>
      </trkpt>
      <trkpt lat="45.79091" lon="4.76249">
        <ele>298.626709</ele>
        <time>2011-08-26T10:23:25Z</time>
      </trkpt>
      <trkpt lat="45.79104" lon="4.76244">
        <ele>296.7041016</ele>
        <time>2011-08-26T10:23:29Z</time>
      </trkpt>
      <trkpt lat="45.79117" lon="4.7624">
        <ele>295.7426758</ele>
        <time>2011-08-26T10:23:33Z</time>
      </trkpt>
      <trkpt lat="45.79129" lon="4.76235">
        <ele>294.7813721</ele>
        <time>2011-08-26T10:23:37Z</time>
      </trkpt>
      <trkpt lat="45.79141" lon="4.76231">
        <ele>293.8200684</ele>
        <time>2011-08-26T10:23:41Z</time>
      </trkpt>
      <trkpt lat="45.79155" lon="4.76223">
        <ele>296.2235107</ele>
        <time>2011-08-26T10:23:47Z</time>
      </trkpt>
      <trkpt lat="45.79168" lon="4.76215">
        <ele>296.2235107</ele>
        <time>2011-08-26T10:23:52Z</time>
      </trkpt>
      <trkpt lat="45.7918" lon="4.7621">
        <ele>296.7041016</ele>
        <time>2011-08-26T10:23:57Z</time>
      </trkpt>
      <trkpt lat="45.79195" lon="4.76205">
        <ele>298.626709</ele>
        <time>2011-08-26T10:24:02Z</time>
      </trkpt>
      <trkpt lat="45.79207" lon="4.76201">
        <ele>298.626709</ele>
        <time>2011-08-26T10:24:06Z</time>
      </trkpt>
      <trkpt lat="45.7922" lon="4.76197">
        <ele>299.5880127</ele>
        <time>2011-08-26T10:24:11Z</time>
      </trkpt>
      <trkpt lat="45.79236" lon="4.7619">
        <ele>298.626709</ele>
        <time>2011-08-26T10:24:17Z</time>
      </trkpt>
      <trkpt lat="45.79252" lon="4.76182">
        <ele>298.1461182</ele>
        <time>2011-08-26T10:24:23Z</time>
      </trkpt>
      <trkpt lat="45.79267" lon="4.76178">
        <ele>297.6654053</ele>
        <time>2011-08-26T10:24:28Z</time>
      </trkpt>
      <trkpt lat="45.79277" lon="4.76176">
        <ele>298.1461182</ele>
        <time>2011-08-26T10:24:32Z</time>
      </trkpt>
      <trkpt lat="45.79288" lon="4.76169">
        <ele>296.7041016</ele>
        <time>2011-08-26T10:24:36Z</time>
      </trkpt>
      <trkpt lat="45.79301" lon="4.76163">
        <ele>292.8587646</ele>
        <time>2011-08-26T10:24:40Z</time>
      </trkpt>
      <trkpt lat="45.7931" lon="4.76156">
        <ele>292.3781738</ele>
        <time>2011-08-26T10:24:44Z</time>
      </trkpt>
      <trkpt lat="45.79324" lon="4.76142">
        <ele>289.9748535</ele>
        <time>2011-08-26T10:24:50Z</time>
      </trkpt>
      <trkpt lat="45.79337" lon="4.76126">
        <ele>286.1295166</ele>
        <time>2011-08-26T10:24:56Z</time>
      </trkpt>
      <trkpt lat="45.79352" lon="4.76124">
        <ele>280.8424072</ele>
        <time>2011-08-26T10:25:01Z</time>
      </trkpt>
      <trkpt lat="45.79365" lon="4.76122">
        <ele>277.4776611</ele>
        <time>2011-08-26T10:25:06Z</time>
      </trkpt>
      <trkpt lat="45.79384" lon="4.76123">
        <ele>277.4776611</ele>
        <time>2011-08-26T10:25:12Z</time>
      </trkpt>
      <trkpt lat="45.79399" lon="4.76122">
        <ele>277.4776611</ele>
        <time>2011-08-26T10:25:16Z</time>
      </trkpt>
      <trkpt lat="45.79412" lon="4.76117">
        <ele>281.8035889</ele>
        <time>2011-08-26T10:25:20Z</time>
      </trkpt>
      <trkpt lat="45.79424" lon="4.76117">
        <ele>280.8424072</ele>
        <time>2011-08-26T10:25:24Z</time>
      </trkpt>
      <trkpt lat="45.79443" lon="4.76118">
        <ele>281.8035889</ele>
        <time>2011-08-26T10:25:30Z</time>
      </trkpt>
      <trkpt lat="45.79454" lon="4.76119">
        <ele>283.7261963</ele>
        <time>2011-08-26T10:25:34Z</time>
      </trkpt>
      <trkpt lat="45.79477" lon="4.76116">
        <ele>282.2843018</ele>
        <time>2011-08-26T10:25:41Z</time>
      </trkpt>
      <trkpt lat="45.79485" lon="4.76114">
        <ele>278.4389648</ele>
        <time>2011-08-26T10:25:44Z</time>
      </trkpt>
      <trkpt lat="45.79504" lon="4.76115">
        <ele>273.6324463</ele>
        <time>2011-08-26T10:25:50Z</time>
      </trkpt>
      <trkpt lat="45.79507" lon="4.76114">
        <ele>273.1518555</ele>
        <time>2011-08-26T10:25:51Z</time>
      </trkpt>
      <trkpt lat="45.79518" lon="4.76101">
        <ele>267.864502</ele>
        <time>2011-08-26T10:25:56Z</time>
      </trkpt>
      <trkpt lat="45.79521" lon="4.76097">
        <ele>268.3450928</ele>
        <time>2011-08-26T10:25:57Z</time>
      </trkpt>
      <trkpt lat="45.79534" lon="4.76081">
        <ele>266.9031982</ele>
        <time>2011-08-26T10:26:03Z</time>
      </trkpt>
      <trkpt lat="45.79542" lon="4.7607">
        <ele>268.8258057</ele>
        <time>2011-08-26T10:26:07Z</time>
      </trkpt>
      <trkpt lat="45.79551" lon="4.76065">
        <ele>268.3450928</ele>
        <time>2011-08-26T10:26:11Z</time>
      </trkpt>
      <trkpt lat="45.79552" lon="4.76063">
        <ele>270.2677002</ele>
        <time>2011-08-26T10:26:12Z</time>
      </trkpt>
      <trkpt lat="45.7956" lon="4.76057">
        <ele>271.7097168</ele>
        <time>2011-08-26T10:26:17Z</time>
      </trkpt>
      <trkpt lat="45.79563" lon="4.76055">
        <ele>274.1130371</ele>
        <time>2011-08-26T10:26:19Z</time>
      </trkpt>
      <trkpt lat="45.7957" lon="4.76051">
        <ele>276.0356445</ele>
        <time>2011-08-26T10:26:24Z</time>
      </trkpt>
      <trkpt lat="45.79582" lon="4.76047">
        <ele>276.5163574</ele>
        <time>2011-08-26T10:26:29Z</time>
      </trkpt>
      <trkpt lat="45.7959" lon="4.76045">
        <ele>276.5163574</ele>
        <time>2011-08-26T10:26:32Z</time>
      </trkpt>
      <trkpt lat="45.79598" lon="4.76041">
        <ele>278.4389648</ele>
        <time>2011-08-26T10:26:36Z</time>
      </trkpt>
      <trkpt lat="45.79613" lon="4.76042">
        <ele>276.9970703</ele>
        <time>2011-08-26T10:26:42Z</time>
      </trkpt>
      <trkpt lat="45.79628" lon="4.76036">
        <ele>275.5550537</ele>
        <time>2011-08-26T10:26:49Z</time>
      </trkpt>
      <trkpt lat="45.79638" lon="4.76028">
        <ele>276.0356445</ele>
        <time>2011-08-26T10:26:54Z</time>
      </trkpt>
      <trkpt lat="45.79647" lon="4.7602">
        <ele>275.5550537</ele>
        <time>2011-08-26T10:26:59Z</time>
      </trkpt>
      <trkpt lat="45.79656" lon="4.76017">
        <ele>275.0744629</ele>
        <time>2011-08-26T10:27:03Z</time>
      </trkpt>
      <trkpt lat="45.79664" lon="4.76014">
        <ele>278.4389648</ele>
        <time>2011-08-26T10:27:07Z</time>
      </trkpt>
      <trkpt lat="45.79681" lon="4.76013">
        <ele>283.2456055</ele>
        <time>2011-08-26T10:27:12Z</time>
      </trkpt>
      <trkpt lat="45.79697" lon="4.76012">
        <ele>286.6102295</ele>
        <time>2011-08-26T10:27:17Z</time>
      </trkpt>
      <trkpt lat="45.79708" lon="4.7601">
        <ele>287.5714111</ele>
        <time>2011-08-26T10:27:21Z</time>
      </trkpt>
      <trkpt lat="45.79713" lon="4.76009">
        <ele>288.0522461</ele>
        <time>2011-08-26T10:27:23Z</time>
      </trkpt>
      <trkpt lat="45.79725" lon="4.76009">
        <ele>289.4941406</ele>
        <time>2011-08-26T10:27:27Z</time>
      </trkpt>
      <trkpt lat="45.79734" lon="4.76007">
        <ele>288.532959</ele>
        <time>2011-08-26T10:27:30Z</time>
      </trkpt>
      <trkpt lat="45.79747" lon="4.75985">
        <ele>285.6488037</ele>
        <time>2011-08-26T10:27:37Z</time>
      </trkpt>
      <trkpt lat="45.79749" lon="4.75976">
        <ele>284.2069092</ele>
        <time>2011-08-26T10:27:42Z</time>
      </trkpt>
      <trkpt lat="45.79747" lon="4.75976">
        <ele>284.2069092</ele>
        <time>2011-08-26T10:27:43Z</time>
      </trkpt>
      <trkpt lat="45.79736" lon="4.75981">
        <ele>285.1682129</ele>
        <time>2011-08-26T10:27:48Z</time>
      </trkpt>
      <trkpt lat="45.7973" lon="4.75983">
        <ele>285.6488037</ele>
        <time>2011-08-26T10:27:50Z</time>
      </trkpt>
      <trkpt lat="45.79712" lon="4.75983">
        <ele>286.1295166</ele>
        <time>2011-08-26T10:27:57Z</time>
      </trkpt>
      <trkpt lat="45.79698" lon="4.75982">
        <ele>285.6488037</ele>
        <time>2011-08-26T10:28:03Z</time>
      </trkpt>
      <trkpt lat="45.79687" lon="4.75981">
        <ele>286.1295166</ele>
        <time>2011-08-26T10:28:08Z</time>
      </trkpt>
      <trkpt lat="45.79675" lon="4.75967">
        <ele>288.532959</ele>
        <time>2011-08-26T10:28:14Z</time>
      </trkpt>
      <trkpt lat="45.79668" lon="4.75953">
        <ele>291.8974609</ele>
        <time>2011-08-26T10:28:19Z</time>
      </trkpt>
      <trkpt lat="45.79657" lon="4.75936">
        <ele>294.7813721</ele>
        <time>2011-08-26T10:28:25Z</time>
      </trkpt>
      <trkpt lat="45.79655" lon="4.75929">
        <ele>296.7041016</ele>
        <time>2011-08-26T10:28:28Z</time>
      </trkpt>
      <trkpt lat="45.79654" lon="4.7591">
        <ele>297.1846924</ele>
        <time>2011-08-26T10:28:34Z</time>
      </trkpt>
      <trkpt lat="45.79651" lon="4.75892">
        <ele>296.2235107</ele>
        <time>2011-08-26T10:28:40Z</time>
      </trkpt>
      <trkpt lat="45.79648" lon="4.75877">
        <ele>297.6654053</ele>
        <time>2011-08-26T10:28:45Z</time>
      </trkpt>
      <trkpt lat="45.79643" lon="4.75863">
        <ele>302.4719238</ele>
        <time>2011-08-26T10:28:50Z</time>
      </trkpt>
      <trkpt lat="45.79643" lon="4.7586">
        <ele>303.4332275</ele>
        <time>2011-08-26T10:28:51Z</time>
      </trkpt>
      <trkpt lat="45.79639" lon="4.75844">
        <ele>307.2785645</ele>
        <time>2011-08-26T10:28:56Z</time>
      </trkpt>
      <trkpt lat="45.79639" lon="4.75823">
        <ele>307.2785645</ele>
        <time>2011-08-26T10:29:02Z</time>
      </trkpt>
      <trkpt lat="45.79635" lon="4.75806">
        <ele>305.355957</ele>
        <time>2011-08-26T10:29:06Z</time>
      </trkpt>
      <trkpt lat="45.79632" lon="4.75785">
        <ele>303.9139404</ele>
        <time>2011-08-26T10:29:11Z</time>
      </trkpt>
      <trkpt lat="45.79629" lon="4.7576">
        <ele>302.4719238</ele>
        <time>2011-08-26T10:29:17Z</time>
      </trkpt>
      <trkpt lat="45.79621" lon="4.75742">
        <ele>301.991333</ele>
        <time>2011-08-26T10:29:22Z</time>
      </trkpt>
      <trkpt lat="45.79611" lon="4.75725">
        <ele>301.0299072</ele>
        <time>2011-08-26T10:29:27Z</time>
      </trkpt>
      <trkpt lat="45.79595" lon="4.75705">
        <ele>301.5106201</ele>
        <time>2011-08-26T10:29:34Z</time>
      </trkpt>
      <trkpt lat="45.79593" lon="4.75701">
        <ele>301.0299072</ele>
        <time>2011-08-26T10:29:35Z</time>
      </trkpt>
      <trkpt lat="45.79586" lon="4.75687">
        <ele>301.991333</ele>
        <time>2011-08-26T10:29:39Z</time>
      </trkpt>
      <trkpt lat="45.79584" lon="4.75684">
        <ele>301.991333</ele>
        <time>2011-08-26T10:29:40Z</time>
      </trkpt>
      <trkpt lat="45.7957" lon="4.75666">
        <ele>301.5106201</ele>
        <time>2011-08-26T10:29:46Z</time>
      </trkpt>
      <trkpt lat="45.79562" lon="4.75653">
        <ele>301.991333</ele>
        <time>2011-08-26T10:29:50Z</time>
      </trkpt>
      <trkpt lat="45.7956" lon="4.75649">
        <ele>301.991333</ele>
        <time>2011-08-26T10:29:51Z</time>
      </trkpt>
      <trkpt lat="45.79545" lon="4.7563">
        <ele>301.991333</ele>
        <time>2011-08-26T10:29:58Z</time>
      </trkpt>
      <trkpt lat="45.79534" lon="4.7562">
        <ele>302.4719238</ele>
        <time>2011-08-26T10:30:03Z</time>
      </trkpt>
      <trkpt lat="45.79522" lon="4.75617">
        <ele>304.8752441</ele>
        <time>2011-08-26T10:30:08Z</time>
      </trkpt>
      <trkpt lat="45.79512" lon="4.75622">
        <ele>307.2785645</ele>
        <time>2011-08-26T10:30:13Z</time>
      </trkpt>
      <trkpt lat="45.79497" lon="4.75629">
        <ele>312.0852051</ele>
        <time>2011-08-26T10:30:19Z</time>
      </trkpt>
      <trkpt lat="45.79486" lon="4.75629">
        <ele>312.0852051</ele>
        <time>2011-08-26T10:30:23Z</time>
      </trkpt>
      <trkpt lat="45.79475" lon="4.75631">
        <ele>312.5657959</ele>
        <time>2011-08-26T10:30:27Z</time>
      </trkpt>
      <trkpt lat="45.79464" lon="4.75631">
        <ele>311.6044922</ele>
        <time>2011-08-26T10:30:31Z</time>
      </trkpt>
      <trkpt lat="45.7945" lon="4.75632">
        <ele>310.6430664</ele>
        <time>2011-08-26T10:30:36Z</time>
      </trkpt>
      <trkpt lat="45.79437" lon="4.7563">
        <ele>309.2011719</ele>
        <time>2011-08-26T10:30:40Z</time>
      </trkpt>
      <trkpt lat="45.79422" lon="4.75622">
        <ele>307.2785645</ele>
        <time>2011-08-26T10:30:45Z</time>
      </trkpt>
      <trkpt lat="45.79409" lon="4.75614">
        <ele>307.2785645</ele>
        <time>2011-08-26T10:30:49Z</time>
      </trkpt>
      <trkpt lat="45.79394" lon="4.75601">
        <ele>306.7978516</ele>
        <time>2011-08-26T10:30:54Z</time>
      </trkpt>
      <trkpt lat="45.79381" lon="4.75597">
        <ele>306.3172607</ele>
        <time>2011-08-26T10:30:58Z</time>
      </trkpt>
      <trkpt lat="45.79366" lon="4.75593">
        <ele>306.7978516</ele>
        <time>2011-08-26T10:31:03Z</time>
      </trkpt>
      <trkpt lat="45.79348" lon="4.75589">
        <ele>305.355957</ele>
        <time>2011-08-26T10:31:09Z</time>
      </trkpt>
      <trkpt lat="45.79333" lon="4.75584">
        <ele>302.9525146</ele>
        <time>2011-08-26T10:31:14Z</time>
      </trkpt>
      <trkpt lat="45.79321" lon="4.75574">
        <ele>301.991333</ele>
        <time>2011-08-26T10:31:18Z</time>
      </trkpt>
      <trkpt lat="45.7932" lon="4.75552">
        <ele>299.5880127</ele>
        <time>2011-08-26T10:31:23Z</time>
      </trkpt>
      <trkpt lat="45.79321" lon="4.75548">
        <ele>299.1072998</ele>
        <time>2011-08-26T10:31:24Z</time>
      </trkpt>
      <trkpt lat="45.79321" lon="4.75529">
        <ele>297.1846924</ele>
        <time>2011-08-26T10:31:29Z</time>
      </trkpt>
      <trkpt lat="45.79322" lon="4.75519">
        <ele>294.7813721</ele>
        <time>2011-08-26T10:31:32Z</time>
      </trkpt>
      <trkpt lat="45.79332" lon="4.75505">
        <ele>291.8974609</ele>
        <time>2011-08-26T10:31:37Z</time>
      </trkpt>
      <trkpt lat="45.79335" lon="4.75492">
        <ele>288.0522461</ele>
        <time>2011-08-26T10:31:41Z</time>
      </trkpt>
      <trkpt lat="45.7933" lon="4.7547">
        <ele>284.2069092</ele>
        <time>2011-08-26T10:31:47Z</time>
      </trkpt>
      <trkpt lat="45.79323" lon="4.75455">
        <ele>286.1295166</ele>
        <time>2011-08-26T10:31:51Z</time>
      </trkpt>
      <trkpt lat="45.79316" lon="4.75441">
        <ele>287.5714111</ele>
        <time>2011-08-26T10:31:54Z</time>
      </trkpt>
      <trkpt lat="45.79309" lon="4.75427">
        <ele>288.532959</ele>
        <time>2011-08-26T10:31:57Z</time>
      </trkpt>
      <trkpt lat="45.7931" lon="4.75406">
        <ele>289.9748535</ele>
        <time>2011-08-26T10:32:02Z</time>
      </trkpt>
      <trkpt lat="45.79315" lon="4.75383">
        <ele>285.1682129</ele>
        <time>2011-08-26T10:32:08Z</time>
      </trkpt>
      <trkpt lat="45.79307" lon="4.75381">
        <ele>283.7261963</ele>
        <time>2011-08-26T10:32:11Z</time>
      </trkpt>
      <trkpt lat="45.79304" lon="4.75382">
        <ele>283.7261963</ele>
        <time>2011-08-26T10:32:12Z</time>
      </trkpt>
      <trkpt lat="45.79284" lon="4.75381">
        <ele>284.2069092</ele>
        <time>2011-08-26T10:32:19Z</time>
      </trkpt>
      <trkpt lat="45.79282" lon="4.7538">
        <ele>284.2069092</ele>
        <time>2011-08-26T10:32:20Z</time>
      </trkpt>
      <trkpt lat="45.79272" lon="4.75378">
        <ele>280.8424072</ele>
        <time>2011-08-26T10:32:25Z</time>
      </trkpt>
      <trkpt lat="45.7927" lon="4.75377">
        <ele>278.9196777</ele>
        <time>2011-08-26T10:32:26Z</time>
      </trkpt>
      <trkpt lat="45.79254" lon="4.75373">
        <ele>275.5550537</ele>
        <time>2011-08-26T10:32:32Z</time>
      </trkpt>
      <trkpt lat="45.79242" lon="4.75373">
        <ele>273.6324463</ele>
        <time>2011-08-26T10:32:36Z</time>
      </trkpt>
      <trkpt lat="45.79227" lon="4.75365">
        <ele>271.7097168</ele>
        <time>2011-08-26T10:32:41Z</time>
      </trkpt>
      <trkpt lat="45.79218" lon="4.75362">
        <ele>272.1904297</ele>
        <time>2011-08-26T10:32:44Z</time>
      </trkpt>
      <trkpt lat="45.79207" lon="4.75356">
        <ele>270.2677002</ele>
        <time>2011-08-26T10:32:48Z</time>
      </trkpt>
      <trkpt lat="45.79184" lon="4.75339">
        <ele>269.3065186</ele>
        <time>2011-08-26T10:32:55Z</time>
      </trkpt>
      <trkpt lat="45.79169" lon="4.75325">
        <ele>273.6324463</ele>
        <time>2011-08-26T10:33:00Z</time>
      </trkpt>
      <trkpt lat="45.79165" lon="4.75319">
        <ele>273.6324463</ele>
        <time>2011-08-26T10:33:02Z</time>
      </trkpt>
      <trkpt lat="45.7915" lon="4.75309">
        <ele>276.5163574</ele>
        <time>2011-08-26T10:33:07Z</time>
      </trkpt>
      <trkpt lat="45.79137" lon="4.75298">
        <ele>274.59375</ele>
        <time>2011-08-26T10:33:12Z</time>
      </trkpt>
      <trkpt lat="45.79135" lon="4.75296">
        <ele>274.1130371</ele>
        <time>2011-08-26T10:33:13Z</time>
      </trkpt>
      <trkpt lat="45.79127" lon="4.75289">
        <ele>264.9805908</ele>
        <time>2011-08-26T10:33:18Z</time>
      </trkpt>
      <trkpt lat="45.79116" lon="4.75275">
        <ele>259.2126465</ele>
        <time>2011-08-26T10:33:24Z</time>
      </trkpt>
      <trkpt lat="45.79106" lon="4.75262">
        <ele>252.0028076</ele>
        <time>2011-08-26T10:33:29Z</time>
      </trkpt>
      <trkpt lat="45.79092" lon="4.75247">
        <ele>244.7928467</ele>
        <time>2011-08-26T10:33:34Z</time>
      </trkpt>
      <trkpt lat="45.79085" lon="4.75243">
        <ele>242.3896484</ele>
        <time>2011-08-26T10:33:37Z</time>
      </trkpt>
      <trkpt lat="45.79066" lon="4.7525">
        <ele>242.3896484</ele>
        <time>2011-08-26T10:33:43Z</time>
      </trkpt>
      <trkpt lat="45.79053" lon="4.75259">
        <ele>241.9089355</ele>
        <time>2011-08-26T10:33:48Z</time>
      </trkpt>
      <trkpt lat="45.79039" lon="4.75262">
        <ele>243.3508301</ele>
        <time>2011-08-26T10:33:52Z</time>
      </trkpt>
      <trkpt lat="45.79021" lon="4.75264">
        <ele>244.7928467</ele>
        <time>2011-08-26T10:33:57Z</time>
      </trkpt>
      <trkpt lat="45.79006" lon="4.75271">
        <ele>251.0413818</ele>
        <time>2011-08-26T10:34:02Z</time>
      </trkpt>
      <trkpt lat="45.7899" lon="4.75273">
        <ele>255.3673096</ele>
        <time>2011-08-26T10:34:06Z</time>
      </trkpt>
      <trkpt lat="45.78973" lon="4.75278">
        <ele>261.6159668</ele>
        <time>2011-08-26T10:34:11Z</time>
      </trkpt>
      <trkpt lat="45.78965" lon="4.75282">
        <ele>258.7319336</ele>
        <time>2011-08-26T10:34:15Z</time>
      </trkpt>
      <trkpt lat="45.7895" lon="4.75281">
        <ele>267.3839111</ele>
        <time>2011-08-26T10:34:20Z</time>
      </trkpt>
      <trkpt lat="45.78931" lon="4.75288">
        <ele>273.1518555</ele>
        <time>2011-08-26T10:34:25Z</time>
      </trkpt>
      <trkpt lat="45.78915" lon="4.75293">
        <ele>269.7871094</ele>
        <time>2011-08-26T10:34:30Z</time>
      </trkpt>
      <trkpt lat="45.78902" lon="4.75296">
        <ele>269.7871094</ele>
        <time>2011-08-26T10:34:34Z</time>
      </trkpt>
      <trkpt lat="45.78886" lon="4.75304">
        <ele>269.3065186</ele>
        <time>2011-08-26T10:34:39Z</time>
      </trkpt>
      <trkpt lat="45.78872" lon="4.75309">
        <ele>268.3450928</ele>
        <time>2011-08-26T10:34:44Z</time>
      </trkpt>
      <trkpt lat="45.78856" lon="4.7531">
        <ele>273.1518555</ele>
        <time>2011-08-26T10:34:48Z</time>
      </trkpt>
      <trkpt lat="45.78843" lon="4.75317">
        <ele>272.6711426</ele>
        <time>2011-08-26T10:34:53Z</time>
      </trkpt>
      <trkpt lat="45.78837" lon="4.75323">
        <ele>271.229126</ele>
        <time>2011-08-26T10:34:56Z</time>
      </trkpt>
      <trkpt lat="45.78824" lon="4.75328">
        <ele>271.229126</ele>
        <time>2011-08-26T10:35:01Z</time>
      </trkpt>
      <trkpt lat="45.78812" lon="4.75329">
        <ele>271.7097168</ele>
        <time>2011-08-26T10:35:04Z</time>
      </trkpt>
      <trkpt lat="45.78798" lon="4.75334">
        <ele>272.6711426</ele>
        <time>2011-08-26T10:35:08Z</time>
      </trkpt>
      <trkpt lat="45.78783" lon="4.75338">
        <ele>273.1518555</ele>
        <time>2011-08-26T10:35:12Z</time>
      </trkpt>
      <trkpt lat="45.78773" lon="4.75345">
        <ele>272.1904297</ele>
        <time>2011-08-26T10:35:16Z</time>
      </trkpt>
      <trkpt lat="45.7876" lon="4.75348">
        <ele>267.3839111</ele>
        <time>2011-08-26T10:35:21Z</time>
      </trkpt>
      <trkpt lat="45.78747" lon="4.75357">
        <ele>264.4998779</ele>
        <time>2011-08-26T10:35:26Z</time>
      </trkpt>
      <trkpt lat="45.78733" lon="4.75363">
        <ele>264.4998779</ele>
        <time>2011-08-26T10:35:31Z</time>
      </trkpt>
      <trkpt lat="45.78722" lon="4.7538">
        <ele>263.0578613</ele>
        <time>2011-08-26T10:35:36Z</time>
      </trkpt>
      <trkpt lat="45.78711" lon="4.75399">
        <ele>265.4613037</ele>
        <time>2011-08-26T10:35:42Z</time>
      </trkpt>
      <trkpt lat="45.78698" lon="4.7541">
        <ele>268.8258057</ele>
        <time>2011-08-26T10:35:47Z</time>
      </trkpt>
      <trkpt lat="45.78687" lon="4.75422">
        <ele>272.1904297</ele>
        <time>2011-08-26T10:35:52Z</time>
      </trkpt>
      <trkpt lat="45.78679" lon="4.75431">
        <ele>272.1904297</ele>
        <time>2011-08-26T10:35:56Z</time>
      </trkpt>
      <trkpt lat="45.78668" lon="4.75441">
        <ele>270.2677002</ele>
        <time>2011-08-26T10:36:00Z</time>
      </trkpt>
      <trkpt lat="45.78658" lon="4.75448">
        <ele>272.6711426</ele>
        <time>2011-08-26T10:36:04Z</time>
      </trkpt>
      <trkpt lat="45.7865" lon="4.75459">
        <ele>274.59375</ele>
        <time>2011-08-26T10:36:08Z</time>
      </trkpt>
      <trkpt lat="45.78645" lon="4.75466">
        <ele>276.5163574</ele>
        <time>2011-08-26T10:36:11Z</time>
      </trkpt>
      <trkpt lat="45.78639" lon="4.75477">
        <ele>272.6711426</ele>
        <time>2011-08-26T10:36:15Z</time>
      </trkpt>
      <trkpt lat="45.78638" lon="4.75479">
        <ele>272.1904297</ele>
        <time>2011-08-26T10:36:16Z</time>
      </trkpt>
      <trkpt lat="45.78638" lon="4.75486">
        <ele>268.8258057</ele>
        <time>2011-08-26T10:36:18Z</time>
      </trkpt>
      <trkpt lat="45.78642" lon="4.75492">
        <ele>268.3450928</ele>
        <time>2011-08-26T10:36:23Z</time>
      </trkpt>
      <trkpt lat="45.78652" lon="4.7549">
        <ele>267.864502</ele>
        <time>2011-08-26T10:36:27Z</time>
      </trkpt>
      <trkpt lat="45.78657" lon="4.7549">
        <ele>267.3839111</ele>
        <time>2011-08-26T10:36:29Z</time>
      </trkpt>
      <trkpt lat="45.78671" lon="4.75487">
        <ele>265.9418945</ele>
        <time>2011-08-26T10:36:35Z</time>
      </trkpt>
      <trkpt lat="45.78684" lon="4.75483">
        <ele>264.9805908</ele>
        <time>2011-08-26T10:36:41Z</time>
      </trkpt>
      <trkpt lat="45.78698" lon="4.75478">
        <ele>263.5385742</ele>
        <time>2011-08-26T10:36:46Z</time>
      </trkpt>
      <trkpt lat="45.78713" lon="4.75476">
        <ele>263.0578613</ele>
        <time>2011-08-26T10:36:50Z</time>
      </trkpt>
      <trkpt lat="45.7872" lon="4.75474">
        <ele>262.5771484</ele>
        <time>2011-08-26T10:36:53Z</time>
      </trkpt>
      <trkpt lat="45.7873" lon="4.75473">
        <ele>262.0965576</ele>
        <time>2011-08-26T10:36:58Z</time>
      </trkpt>
      <trkpt lat="45.78739" lon="4.75472">
        <ele>261.1352539</ele>
        <time>2011-08-26T10:37:02Z</time>
      </trkpt>
      <trkpt lat="45.78747" lon="4.75469">
        <ele>260.1739502</ele>
        <time>2011-08-26T10:37:06Z</time>
      </trkpt>
      <trkpt lat="45.7876" lon="4.75465">
        <ele>256.8093262</ele>
        <time>2011-08-26T10:37:11Z</time>
      </trkpt>
      <trkpt lat="45.78776" lon="4.75462">
        <ele>256.8093262</ele>
        <time>2011-08-26T10:37:16Z</time>
      </trkpt>
      <trkpt lat="45.78785" lon="4.75466">
        <ele>258.7319336</ele>
        <time>2011-08-26T10:37:20Z</time>
      </trkpt>
      <trkpt lat="45.78794" lon="4.75462">
        <ele>260.1739502</ele>
        <time>2011-08-26T10:37:24Z</time>
      </trkpt>
      <trkpt lat="45.78808" lon="4.75444">
        <ele>261.1352539</ele>
        <time>2011-08-26T10:37:31Z</time>
      </trkpt>
      <trkpt lat="45.7881" lon="4.75442">
        <ele>261.1352539</ele>
        <time>2011-08-26T10:37:32Z</time>
      </trkpt>
      <trkpt lat="45.78821" lon="4.75441">
        <ele>263.0578613</ele>
        <time>2011-08-26T10:37:37Z</time>
      </trkpt>
      <trkpt lat="45.78831" lon="4.75449">
        <ele>264.9805908</ele>
        <time>2011-08-26T10:37:41Z</time>
      </trkpt>
      <trkpt lat="45.78836" lon="4.75452">
        <ele>266.9031982</ele>
        <time>2011-08-26T10:37:43Z</time>
      </trkpt>
      <trkpt lat="45.78847" lon="4.75456">
        <ele>268.3450928</ele>
        <time>2011-08-26T10:37:48Z</time>
      </trkpt>
      <trkpt lat="45.7886" lon="4.75456">
        <ele>269.3065186</ele>
        <time>2011-08-26T10:37:54Z</time>
      </trkpt>
      <trkpt lat="45.78872" lon="4.75455">
        <ele>269.7871094</ele>
        <time>2011-08-26T10:37:58Z</time>
      </trkpt>
      <trkpt lat="45.78879" lon="4.75456">
        <ele>273.1518555</ele>
        <time>2011-08-26T10:38:01Z</time>
      </trkpt>
      <trkpt lat="45.78888" lon="4.75457">
        <ele>276.0356445</ele>
        <time>2011-08-26T10:38:06Z</time>
      </trkpt>
      <trkpt lat="45.78895" lon="4.75459">
        <ele>277.4776611</ele>
        <time>2011-08-26T10:38:09Z</time>
      </trkpt>
      <trkpt lat="45.78901" lon="4.75462">
        <ele>281.322998</ele>
        <time>2011-08-26T10:38:13Z</time>
      </trkpt>
      <trkpt lat="45.78915" lon="4.75469">
        <ele>286.1295166</ele>
        <time>2011-08-26T10:38:19Z</time>
      </trkpt>
      <trkpt lat="45.78919" lon="4.75471">
        <ele>287.5714111</ele>
        <time>2011-08-26T10:38:21Z</time>
      </trkpt>
      <trkpt lat="45.78926" lon="4.75474">
        <ele>291.416748</ele>
        <time>2011-08-26T10:38:24Z</time>
      </trkpt>
      <trkpt lat="45.78929" lon="4.75478">
        <ele>293.8200684</ele>
        <time>2011-08-26T10:38:27Z</time>
      </trkpt>
      <trkpt lat="45.78936" lon="4.75481">
        <ele>297.6654053</ele>
        <time>2011-08-26T10:38:32Z</time>
      </trkpt>
      <trkpt lat="45.78948" lon="4.75482">
        <ele>299.5880127</ele>
        <time>2011-08-26T10:38:38Z</time>
      </trkpt>
      <trkpt lat="45.78963" lon="4.75479">
        <ele>300.0687256</ele>
        <time>2011-08-26T10:38:43Z</time>
      </trkpt>
      <trkpt lat="45.78969" lon="4.75478">
        <ele>301.0299072</ele>
        <time>2011-08-26T10:38:45Z</time>
      </trkpt>
      <trkpt lat="45.7898" lon="4.75479">
        <ele>302.9525146</ele>
        <time>2011-08-26T10:38:49Z</time>
      </trkpt>
      <trkpt lat="45.78991" lon="4.7548">
        <ele>303.9139404</ele>
        <time>2011-08-26T10:38:54Z</time>
      </trkpt>
      <trkpt lat="45.79007" lon="4.75485">
        <ele>304.8752441</ele>
        <time>2011-08-26T10:39:01Z</time>
      </trkpt>
      <trkpt lat="45.79019" lon="4.7549">
        <ele>305.8366699</ele>
        <time>2011-08-26T10:39:06Z</time>
      </trkpt>
      <trkpt lat="45.79031" lon="4.75494">
        <ele>307.2785645</ele>
        <time>2011-08-26T10:39:10Z</time>
      </trkpt>
      <trkpt lat="45.79044" lon="4.75498">
        <ele>306.7978516</ele>
        <time>2011-08-26T10:39:15Z</time>
      </trkpt>
      <trkpt lat="45.79049" lon="4.75498">
        <ele>305.355957</ele>
        <time>2011-08-26T10:39:17Z</time>
      </trkpt>
      <trkpt lat="45.79067" lon="4.75502">
        <ele>306.3172607</ele>
        <time>2011-08-26T10:39:24Z</time>
      </trkpt>
      <trkpt lat="45.79083" lon="4.75507">
        <ele>306.7978516</ele>
        <time>2011-08-26T10:39:29Z</time>
      </trkpt>
      <trkpt lat="45.79096" lon="4.75513">
        <ele>310.1624756</ele>
        <time>2011-08-26T10:39:34Z</time>
      </trkpt>
      <trkpt lat="45.79109" lon="4.75516">
        <ele>310.6430664</ele>
        <time>2011-08-26T10:39:38Z</time>
      </trkpt>
      <trkpt lat="45.79123" lon="4.75521">
        <ele>311.1237793</ele>
        <time>2011-08-26T10:39:42Z</time>
      </trkpt>
      <trkpt lat="45.79138" lon="4.7553">
        <ele>313.0465088</ele>
        <time>2011-08-26T10:39:47Z</time>
      </trkpt>
      <trkpt lat="45.79145" lon="4.75535">
        <ele>313.5272217</ele>
        <time>2011-08-26T10:39:50Z</time>
      </trkpt>
      <trkpt lat="45.79156" lon="4.75542">
        <ele>315.4498291</ele>
        <time>2011-08-26T10:39:55Z</time>
      </trkpt>
      <trkpt lat="45.79174" lon="4.75554">
        <ele>314.9691162</ele>
        <time>2011-08-26T10:40:01Z</time>
      </trkpt>
      <trkpt lat="45.79188" lon="4.75564">
        <ele>315.9304199</ele>
        <time>2011-08-26T10:40:06Z</time>
      </trkpt>
      <trkpt lat="45.792" lon="4.75568">
        <ele>316.4110107</ele>
        <time>2011-08-26T10:40:11Z</time>
      </trkpt>
      <trkpt lat="45.7921" lon="4.75569">
        <ele>316.4110107</ele>
        <time>2011-08-26T10:40:15Z</time>
      </trkpt>
      <trkpt lat="45.79227" lon="4.7557">
        <ele>317.3724365</ele>
        <time>2011-08-26T10:40:21Z</time>
      </trkpt>
      <trkpt lat="45.79246" lon="4.75569">
        <ele>318.8143311</ele>
        <time>2011-08-26T10:40:27Z</time>
      </trkpt>
      <trkpt lat="45.79251" lon="4.7557">
        <ele>318.8143311</ele>
        <time>2011-08-26T10:40:29Z</time>
      </trkpt>
      <trkpt lat="45.79269" lon="4.75575">
        <ele>318.8143311</ele>
        <time>2011-08-26T10:40:34Z</time>
      </trkpt>
      <trkpt lat="45.79279" lon="4.75579">
        <ele>317.8530273</ele>
        <time>2011-08-26T10:40:38Z</time>
      </trkpt>
      <trkpt lat="45.79292" lon="4.75582">
        <ele>315.9304199</ele>
        <time>2011-08-26T10:40:42Z</time>
      </trkpt>
      <trkpt lat="45.79301" lon="4.75591">
        <ele>317.3724365</ele>
        <time>2011-08-26T10:40:46Z</time>
      </trkpt>
      <trkpt lat="45.79311" lon="4.75611">
        <ele>308.720459</ele>
        <time>2011-08-26T10:40:51Z</time>
      </trkpt>
      <trkpt lat="45.7931" lon="4.75625">
        <ele>307.2785645</ele>
        <time>2011-08-26T10:40:54Z</time>
      </trkpt>
      <trkpt lat="45.79309" lon="4.75641">
        <ele>306.7978516</ele>
        <time>2011-08-26T10:40:58Z</time>
      </trkpt>
      <trkpt lat="45.79307" lon="4.75656">
        <ele>305.355957</ele>
        <time>2011-08-26T10:41:02Z</time>
      </trkpt>
      <trkpt lat="45.79306" lon="4.75677">
        <ele>306.7978516</ele>
        <time>2011-08-26T10:41:07Z</time>
      </trkpt>
      <trkpt lat="45.79306" lon="4.75687">
        <ele>307.2785645</ele>
        <time>2011-08-26T10:41:09Z</time>
      </trkpt>
      <trkpt lat="45.79305" lon="4.75712">
        <ele>306.7978516</ele>
        <time>2011-08-26T10:41:14Z</time>
      </trkpt>
      <trkpt lat="45.79301" lon="4.75729">
        <ele>305.8366699</ele>
        <time>2011-08-26T10:41:18Z</time>
      </trkpt>
      <trkpt lat="45.79295" lon="4.75735">
        <ele>305.8366699</ele>
        <time>2011-08-26T10:41:20Z</time>
      </trkpt>
      <trkpt lat="45.7929" lon="4.75724">
        <ele>303.9139404</ele>
        <time>2011-08-26T10:41:25Z</time>
      </trkpt>
      <trkpt lat="45.79275" lon="4.75723">
        <ele>303.4332275</ele>
        <time>2011-08-26T10:41:30Z</time>
      </trkpt>
      <trkpt lat="45.7926" lon="4.75728">
        <ele>304.8752441</ele>
        <time>2011-08-26T10:41:35Z</time>
      </trkpt>
      <trkpt lat="45.79248" lon="4.75736">
        <ele>303.4332275</ele>
        <time>2011-08-26T10:41:41Z</time>
      </trkpt>
      <trkpt lat="45.79246" lon="4.75737">
        <ele>302.9525146</ele>
        <time>2011-08-26T10:41:42Z</time>
      </trkpt>
      <trkpt lat="45.79236" lon="4.75741">
        <ele>302.4719238</ele>
        <time>2011-08-26T10:41:46Z</time>
      </trkpt>
      <trkpt lat="45.79211" lon="4.75738">
        <ele>296.2235107</ele>
        <time>2011-08-26T10:41:52Z</time>
      </trkpt>
      <trkpt lat="45.79204" lon="4.75739">
        <ele>294.7813721</ele>
        <time>2011-08-26T10:41:54Z</time>
      </trkpt>
      <trkpt lat="45.7919" lon="4.75744">
        <ele>295.7426758</ele>
        <time>2011-08-26T10:41:58Z</time>
      </trkpt>
      <trkpt lat="45.79177" lon="4.75749">
        <ele>292.8587646</ele>
        <time>2011-08-26T10:42:03Z</time>
      </trkpt>
      <trkpt lat="45.79166" lon="4.75755">
        <ele>285.6488037</ele>
        <time>2011-08-26T10:42:08Z</time>
      </trkpt>
      <trkpt lat="45.79162" lon="4.75761">
        <ele>284.6876221</ele>
        <time>2011-08-26T10:42:11Z</time>
      </trkpt>
      <trkpt lat="45.7916" lon="4.75762">
        <ele>282.7650146</ele>
        <time>2011-08-26T10:42:13Z</time>
      </trkpt>
      <trkpt lat="45.7916" lon="4.75764">
        <ele>280.3616943</ele>
        <time>2011-08-26T10:42:16Z</time>
      </trkpt>
      <trkpt lat="45.7916" lon="4.75769">
        <ele>281.8035889</ele>
        <time>2011-08-26T10:42:19Z</time>
      </trkpt>
      <trkpt lat="45.79164" lon="4.75772">
        <ele>283.2456055</ele>
        <time>2011-08-26T10:42:25Z</time>
      </trkpt>
      <trkpt lat="45.79166" lon="4.75772">
        <ele>282.7650146</ele>
        <time>2011-08-26T10:42:26Z</time>
      </trkpt>
      <trkpt lat="45.79174" lon="4.75774">
        <ele>284.6876221</ele>
        <time>2011-08-26T10:42:31Z</time>
      </trkpt>
      <trkpt lat="45.7918" lon="4.75775">
        <ele>284.6876221</ele>
        <time>2011-08-26T10:42:34Z</time>
      </trkpt>
      <trkpt lat="45.79188" lon="4.75781">
        <ele>287.5714111</ele>
        <time>2011-08-26T10:42:38Z</time>
      </trkpt>
      <trkpt lat="45.7919" lon="4.75784">
        <ele>286.6102295</ele>
        <time>2011-08-26T10:42:41Z</time>
      </trkpt>
      <trkpt lat="45.79201" lon="4.75787">
        <ele>288.0522461</ele>
        <time>2011-08-26T10:42:47Z</time>
      </trkpt>
      <trkpt lat="45.79202" lon="4.75787">
        <ele>288.0522461</ele>
        <time>2011-08-26T10:42:48Z</time>
      </trkpt>
      <trkpt lat="45.79207" lon="4.75788">
        <ele>289.0135498</ele>
        <time>2011-08-26T10:42:52Z</time>
      </trkpt>
      <trkpt lat="45.79217" lon="4.75795">
        <ele>290.9361572</ele>
        <time>2011-08-26T10:42:57Z</time>
      </trkpt>
      <trkpt lat="45.79223" lon="4.75801">
        <ele>293.3393555</ele>
        <time>2011-08-26T10:43:01Z</time>
      </trkpt>
      <trkpt lat="45.79229" lon="4.75803">
        <ele>293.8200684</ele>
        <time>2011-08-26T10:43:04Z</time>
      </trkpt>
      <trkpt lat="45.79233" lon="4.75805">
        <ele>294.7813721</ele>
        <time>2011-08-26T10:43:07Z</time>
      </trkpt>
      <trkpt lat="45.79243" lon="4.758">
        <ele>295.7426758</ele>
        <time>2011-08-26T10:43:12Z</time>
      </trkpt>
      <trkpt lat="45.79254" lon="4.75795">
        <ele>297.1846924</ele>
        <time>2011-08-26T10:43:18Z</time>
      </trkpt>
      <trkpt lat="45.79261" lon="4.75791">
        <ele>297.1846924</ele>
        <time>2011-08-26T10:43:21Z</time>
      </trkpt>
      <trkpt lat="45.79272" lon="4.75786">
        <ele>296.2235107</ele>
        <time>2011-08-26T10:43:26Z</time>
      </trkpt>
      <trkpt lat="45.79284" lon="4.75788">
        <ele>295.2619629</ele>
        <time>2011-08-26T10:43:31Z</time>
      </trkpt>
      <trkpt lat="45.79289" lon="4.75794">
        <ele>296.7041016</ele>
        <time>2011-08-26T10:43:34Z</time>
      </trkpt>
      <trkpt lat="45.79294" lon="4.75811">
        <ele>295.7426758</ele>
        <time>2011-08-26T10:43:39Z</time>
      </trkpt>
      <trkpt lat="45.79305" lon="4.75824">
        <ele>297.6654053</ele>
        <time>2011-08-26T10:43:43Z</time>
      </trkpt>
      <trkpt lat="45.79321" lon="4.75841">
        <ele>296.2235107</ele>
        <time>2011-08-26T10:43:48Z</time>
      </trkpt>
      <trkpt lat="45.79327" lon="4.75851">
        <ele>296.2235107</ele>
        <time>2011-08-26T10:43:52Z</time>
      </trkpt>
      <trkpt lat="45.79336" lon="4.75865">
        <ele>297.1846924</ele>
        <time>2011-08-26T10:43:57Z</time>
      </trkpt>
      <trkpt lat="45.79337" lon="4.75867">
        <ele>297.6654053</ele>
        <time>2011-08-26T10:43:58Z</time>
      </trkpt>
      <trkpt lat="45.79342" lon="4.75875">
        <ele>299.5880127</ele>
        <time>2011-08-26T10:44:03Z</time>
      </trkpt>
      <trkpt lat="45.79349" lon="4.75876">
        <ele>301.0299072</ele>
        <time>2011-08-26T10:44:06Z</time>
      </trkpt>
      <trkpt lat="45.79363" lon="4.75882">
        <ele>305.8366699</ele>
        <time>2011-08-26T10:44:12Z</time>
      </trkpt>
      <trkpt lat="45.79374" lon="4.75884">
        <ele>308.2398682</ele>
        <time>2011-08-26T10:44:16Z</time>
      </trkpt>
      <trkpt lat="45.79389" lon="4.75885">
        <ele>308.720459</ele>
        <time>2011-08-26T10:44:21Z</time>
      </trkpt>
      <trkpt lat="45.79402" lon="4.75888">
        <ele>309.2011719</ele>
        <time>2011-08-26T10:44:25Z</time>
      </trkpt>
      <trkpt lat="45.79404" lon="4.75889">
        <ele>308.720459</ele>
        <time>2011-08-26T10:44:26Z</time>
      </trkpt>
      <trkpt lat="45.79419" lon="4.75896">
        <ele>310.1624756</ele>
        <time>2011-08-26T10:44:32Z</time>
      </trkpt>
      <trkpt lat="45.79431" lon="4.75899">
        <ele>309.6818848</ele>
        <time>2011-08-26T10:44:37Z</time>
      </trkpt>
      <trkpt lat="45.79437" lon="4.75902">
        <ele>311.6044922</ele>
        <time>2011-08-26T10:44:39Z</time>
      </trkpt>
      <trkpt lat="45.79457" lon="4.75906">
        <ele>314.4884033</ele>
        <time>2011-08-26T10:44:45Z</time>
      </trkpt>
      <trkpt lat="45.79471" lon="4.7591">
        <ele>317.3724365</ele>
        <time>2011-08-26T10:44:50Z</time>
      </trkpt>
      <trkpt lat="45.79473" lon="4.7591">
        <ele>316.4110107</ele>
        <time>2011-08-26T10:44:51Z</time>
      </trkpt>
      <trkpt lat="45.79486" lon="4.7591">
        <ele>314.9691162</ele>
        <time>2011-08-26T10:44:56Z</time>
      </trkpt>
      <trkpt lat="45.79498" lon="4.75912">
        <ele>312.5657959</ele>
        <time>2011-08-26T10:45:00Z</time>
      </trkpt>
      <trkpt lat="45.79508" lon="4.75913">
        <ele>312.5657959</ele>
        <time>2011-08-26T10:45:04Z</time>
      </trkpt>
      <trkpt lat="45.79524" lon="4.75916">
        <ele>313.0465088</ele>
        <time>2011-08-26T10:45:10Z</time>
      </trkpt>
      <trkpt lat="45.79539" lon="4.75915">
        <ele>311.1237793</ele>
        <time>2011-08-26T10:45:14Z</time>
      </trkpt>
      <trkpt lat="45.79541" lon="4.75915">
        <ele>310.6430664</ele>
        <time>2011-08-26T10:45:15Z</time>
      </trkpt>
      <trkpt lat="45.7955" lon="4.75911">
        <ele>310.1624756</ele>
        <time>2011-08-26T10:45:19Z</time>
      </trkpt>
      <trkpt lat="45.79562" lon="4.75904">
        <ele>310.6430664</ele>
        <time>2011-08-26T10:45:25Z</time>
      </trkpt>
      <trkpt lat="45.79565" lon="4.75904">
        <ele>309.6818848</ele>
        <time>2011-08-26T10:45:26Z</time>
      </trkpt>
      <trkpt lat="45.7957" lon="4.75904">
        <ele>310.1624756</ele>
        <time>2011-08-26T10:45:28Z</time>
      </trkpt>
      <trkpt lat="45.79588" lon="4.75907">
        <ele>301.0299072</ele>
        <time>2011-08-26T10:45:34Z</time>
      </trkpt>
      <trkpt lat="45.796" lon="4.75911">
        <ele>299.5880127</ele>
        <time>2011-08-26T10:45:38Z</time>
      </trkpt>
      <trkpt lat="45.79615" lon="4.75914">
        <ele>299.1072998</ele>
        <time>2011-08-26T10:45:42Z</time>
      </trkpt>
      <trkpt lat="45.79627" lon="4.75915">
        <ele>297.1846924</ele>
        <time>2011-08-26T10:45:46Z</time>
      </trkpt>
      <trkpt lat="45.79636" lon="4.75915">
        <ele>294.7813721</ele>
        <time>2011-08-26T10:45:49Z</time>
      </trkpt>
      <trkpt lat="45.79647" lon="4.75903">
        <ele>287.0908203</ele>
        <time>2011-08-26T10:45:55Z</time>
      </trkpt>
      <trkpt lat="45.79647" lon="4.7589">
        <ele>281.8035889</ele>
        <time>2011-08-26T10:45:59Z</time>
      </trkpt>
      <trkpt lat="45.79648" lon="4.75877">
        <ele>277.4776611</ele>
        <time>2011-08-26T10:46:03Z</time>
      </trkpt>
      <trkpt lat="45.7965" lon="4.7586">
        <ele>267.864502</ele>
        <time>2011-08-26T10:46:08Z</time>
      </trkpt>
      <trkpt lat="45.79653" lon="4.75846">
        <ele>261.1352539</ele>
        <time>2011-08-26T10:46:13Z</time>
      </trkpt>
      <trkpt lat="45.79651" lon="4.75823">
        <ele>256.3287354</ele>
        <time>2011-08-26T10:46:18Z</time>
      </trkpt>
      <trkpt lat="45.79649" lon="4.75804">
        <ele>254.4060059</ele>
        <time>2011-08-26T10:46:22Z</time>
      </trkpt>
      <trkpt lat="45.79648" lon="4.75791">
        <ele>252.9639893</ele>
        <time>2011-08-26T10:46:25Z</time>
      </trkpt>
      <trkpt lat="45.79655" lon="4.75779">
        <ele>250.560791</ele>
        <time>2011-08-26T10:46:29Z</time>
      </trkpt>
      <trkpt lat="45.79666" lon="4.75774">
        <ele>253.925415</ele>
        <time>2011-08-26T10:46:33Z</time>
      </trkpt>
      <trkpt lat="45.7967" lon="4.75767">
        <ele>268.3450928</ele>
        <time>2011-08-26T10:46:37Z</time>
      </trkpt>
      <trkpt lat="45.7967" lon="4.75764">
        <ele>272.1904297</ele>
        <time>2011-08-26T10:46:38Z</time>
      </trkpt>
      <trkpt lat="45.79676" lon="4.75755">
        <ele>286.6102295</ele>
        <time>2011-08-26T10:46:43Z</time>
      </trkpt>
      <trkpt lat="45.79686" lon="4.75749">
        <ele>290.9361572</ele>
        <time>2011-08-26T10:46:47Z</time>
      </trkpt>
      <trkpt lat="45.79702" lon="4.75741">
        <ele>289.0135498</ele>
        <time>2011-08-26T10:46:52Z</time>
      </trkpt>
      <trkpt lat="45.7971" lon="4.75737">
        <ele>288.0522461</ele>
        <time>2011-08-26T10:46:55Z</time>
      </trkpt>
      <trkpt lat="45.7972" lon="4.75732">
        <ele>285.1682129</ele>
        <time>2011-08-26T10:46:58Z</time>
      </trkpt>
      <trkpt lat="45.79736" lon="4.75724">
        <ele>283.2456055</ele>
        <time>2011-08-26T10:47:04Z</time>
      </trkpt>
      <trkpt lat="45.79747" lon="4.75717">
        <ele>286.6102295</ele>
        <time>2011-08-26T10:47:09Z</time>
      </trkpt>
      <trkpt lat="45.79757" lon="4.75713">
        <ele>288.0522461</ele>
        <time>2011-08-26T10:47:13Z</time>
      </trkpt>
      <trkpt lat="45.79768" lon="4.75711">
        <ele>287.5714111</ele>
        <time>2011-08-26T10:47:17Z</time>
      </trkpt>
      <trkpt lat="45.79784" lon="4.7571">
        <ele>286.6102295</ele>
        <time>2011-08-26T10:47:21Z</time>
      </trkpt>
      <trkpt lat="45.79799" lon="4.75713">
        <ele>286.6102295</ele>
        <time>2011-08-26T10:47:26Z</time>
      </trkpt>
      <trkpt lat="45.79814" lon="4.75717">
        <ele>286.1295166</ele>
        <time>2011-08-26T10:47:31Z</time>
      </trkpt>
      <trkpt lat="45.79826" lon="4.75715">
        <ele>287.5714111</ele>
        <time>2011-08-26T10:47:35Z</time>
      </trkpt>
      <trkpt lat="45.79837" lon="4.75714">
        <ele>288.0522461</ele>
        <time>2011-08-26T10:47:39Z</time>
      </trkpt>
      <trkpt lat="45.7985" lon="4.75707">
        <ele>289.9748535</ele>
        <time>2011-08-26T10:47:44Z</time>
      </trkpt>
      <trkpt lat="45.79863" lon="4.75704">
        <ele>291.8974609</ele>
        <time>2011-08-26T10:47:49Z</time>
      </trkpt>
      <trkpt lat="45.79876" lon="4.75704">
        <ele>292.8587646</ele>
        <time>2011-08-26T10:47:53Z</time>
      </trkpt>
      <trkpt lat="45.79889" lon="4.757">
        <ele>293.3393555</ele>
        <time>2011-08-26T10:47:58Z</time>
      </trkpt>
      <trkpt lat="45.799" lon="4.75695">
        <ele>292.8587646</ele>
        <time>2011-08-26T10:48:02Z</time>
      </trkpt>
      <trkpt lat="45.79911" lon="4.75693">
        <ele>292.8587646</ele>
        <time>2011-08-26T10:48:06Z</time>
      </trkpt>
      <trkpt lat="45.79922" lon="4.75689">
        <ele>294.7813721</ele>
        <time>2011-08-26T10:48:11Z</time>
      </trkpt>
      <trkpt lat="45.79936" lon="4.75685">
        <ele>295.7426758</ele>
        <time>2011-08-26T10:48:16Z</time>
      </trkpt>
      <trkpt lat="45.79947" lon="4.75684">
        <ele>295.7426758</ele>
        <time>2011-08-26T10:48:20Z</time>
      </trkpt>
      <trkpt lat="45.79956" lon="4.75681">
        <ele>296.7041016</ele>
        <time>2011-08-26T10:48:24Z</time>
      </trkpt>
      <trkpt lat="45.79964" lon="4.75678">
        <ele>298.1461182</ele>
        <time>2011-08-26T10:48:28Z</time>
      </trkpt>
      <trkpt lat="45.79981" lon="4.75672">
        <ele>298.1461182</ele>
        <time>2011-08-26T10:48:34Z</time>
      </trkpt>
      <trkpt lat="45.79993" lon="4.75672">
        <ele>297.6654053</ele>
        <time>2011-08-26T10:48:38Z</time>
      </trkpt>
      <trkpt lat="45.80004" lon="4.7567">
        <ele>296.7041016</ele>
        <time>2011-08-26T10:48:42Z</time>
      </trkpt>
      <trkpt lat="45.80018" lon="4.75665">
        <ele>295.7426758</ele>
        <time>2011-08-26T10:48:47Z</time>
      </trkpt>
      <trkpt lat="45.80029" lon="4.75664">
        <ele>297.1846924</ele>
        <time>2011-08-26T10:48:51Z</time>
      </trkpt>
      <trkpt lat="45.80032" lon="4.75663">
        <ele>297.6654053</ele>
        <time>2011-08-26T10:48:52Z</time>
      </trkpt>
      <trkpt lat="45.80051" lon="4.75656">
        <ele>300.0687256</ele>
        <time>2011-08-26T10:48:59Z</time>
      </trkpt>
      <trkpt lat="45.80057" lon="4.75655">
        <ele>300.0687256</ele>
        <time>2011-08-26T10:49:01Z</time>
      </trkpt>
      <trkpt lat="45.80073" lon="4.75652">
        <ele>300.0687256</ele>
        <time>2011-08-26T10:49:07Z</time>
      </trkpt>
      <trkpt lat="45.80076" lon="4.7565">
        <ele>299.5880127</ele>
        <time>2011-08-26T10:49:08Z</time>
      </trkpt>
      <trkpt lat="45.80086" lon="4.75648">
        <ele>302.4719238</ele>
        <time>2011-08-26T10:49:12Z</time>
      </trkpt>
      <trkpt lat="45.80088" lon="4.75647">
        <ele>302.4719238</ele>
        <time>2011-08-26T10:49:13Z</time>
      </trkpt>
      <trkpt lat="45.80104" lon="4.75642">
        <ele>303.9139404</ele>
        <time>2011-08-26T10:49:19Z</time>
      </trkpt>
      <trkpt lat="45.80119" lon="4.75639">
        <ele>308.2398682</ele>
        <time>2011-08-26T10:49:25Z</time>
      </trkpt>
      <trkpt lat="45.80132" lon="4.75641">
        <ele>306.7978516</ele>
        <time>2011-08-26T10:49:29Z</time>
      </trkpt>
      <trkpt lat="45.80141" lon="4.75638">
        <ele>306.3172607</ele>
        <time>2011-08-26T10:49:32Z</time>
      </trkpt>
      <trkpt lat="45.80149" lon="4.75629">
        <ele>303.9139404</ele>
        <time>2011-08-26T10:49:35Z</time>
      </trkpt>
      <trkpt lat="45.8016" lon="4.75621">
        <ele>303.9139404</ele>
        <time>2011-08-26T10:49:40Z</time>
      </trkpt>
      <trkpt lat="45.80177" lon="4.75619">
        <ele>302.4719238</ele>
        <time>2011-08-26T10:49:46Z</time>
      </trkpt>
      <trkpt lat="45.80191" lon="4.75612">
        <ele>301.5106201</ele>
        <time>2011-08-26T10:49:51Z</time>
      </trkpt>
      <trkpt lat="45.80202" lon="4.75608">
        <ele>300.0687256</ele>
        <time>2011-08-26T10:49:55Z</time>
      </trkpt>
      <trkpt lat="45.80215" lon="4.75602">
        <ele>300.5493164</ele>
        <time>2011-08-26T10:50:00Z</time>
      </trkpt>
      <trkpt lat="45.8023" lon="4.75597">
        <ele>298.1461182</ele>
        <time>2011-08-26T10:50:04Z</time>
      </trkpt>
      <trkpt lat="45.80237" lon="4.75596">
        <ele>295.7426758</ele>
        <time>2011-08-26T10:50:07Z</time>
      </trkpt>
      <trkpt lat="45.80254" lon="4.75591">
        <ele>292.3781738</ele>
        <time>2011-08-26T10:50:13Z</time>
      </trkpt>
      <trkpt lat="45.80256" lon="4.75591">
        <ele>292.3781738</ele>
        <time>2011-08-26T10:50:14Z</time>
      </trkpt>
      <trkpt lat="45.80267" lon="4.75589">
        <ele>291.8974609</ele>
        <time>2011-08-26T10:50:18Z</time>
      </trkpt>
      <trkpt lat="45.8028" lon="4.75586">
        <ele>292.3781738</ele>
        <time>2011-08-26T10:50:23Z</time>
      </trkpt>
      <trkpt lat="45.80295" lon="4.75583">
        <ele>289.0135498</ele>
        <time>2011-08-26T10:50:28Z</time>
      </trkpt>
      <trkpt lat="45.8031" lon="4.75581">
        <ele>287.0908203</ele>
        <time>2011-08-26T10:50:33Z</time>
      </trkpt>
      <trkpt lat="45.80324" lon="4.75578">
        <ele>286.6102295</ele>
        <time>2011-08-26T10:50:38Z</time>
      </trkpt>
      <trkpt lat="45.80335" lon="4.75576">
        <ele>288.0522461</ele>
        <time>2011-08-26T10:50:42Z</time>
      </trkpt>
      <trkpt lat="45.80355" lon="4.75568">
        <ele>288.0522461</ele>
        <time>2011-08-26T10:50:49Z</time>
      </trkpt>
      <trkpt lat="45.80365" lon="4.75565">
        <ele>290.4555664</ele>
        <time>2011-08-26T10:50:53Z</time>
      </trkpt>
      <trkpt lat="45.80377" lon="4.75557">
        <ele>292.8587646</ele>
        <time>2011-08-26T10:50:58Z</time>
      </trkpt>
      <trkpt lat="45.80388" lon="4.75553">
        <ele>294.7813721</ele>
        <time>2011-08-26T10:51:02Z</time>
      </trkpt>
      <trkpt lat="45.80399" lon="4.75549">
        <ele>295.7426758</ele>
        <time>2011-08-26T10:51:06Z</time>
      </trkpt>
      <trkpt lat="45.80407" lon="4.75547">
        <ele>296.7041016</ele>
        <time>2011-08-26T10:51:09Z</time>
      </trkpt>
      <trkpt lat="45.80411" lon="4.75543">
        <ele>302.4719238</ele>
        <time>2011-08-26T10:51:11Z</time>
      </trkpt>
      <trkpt lat="45.80431" lon="4.75538">
        <ele>305.355957</ele>
        <time>2011-08-26T10:51:19Z</time>
      </trkpt>
      <trkpt lat="45.80436" lon="4.75537">
        <ele>306.7978516</ele>
        <time>2011-08-26T10:51:21Z</time>
      </trkpt>
      <trkpt lat="45.8045" lon="4.75531">
        <ele>307.7592773</ele>
        <time>2011-08-26T10:51:26Z</time>
      </trkpt>
      <trkpt lat="45.80465" lon="4.75521">
        <ele>318.8143311</ele>
        <time>2011-08-26T10:51:33Z</time>
      </trkpt>
      <trkpt lat="45.80477" lon="4.75515">
        <ele>323.1403809</ele>
        <time>2011-08-26T10:51:38Z</time>
      </trkpt>
      <trkpt lat="45.80488" lon="4.75512">
        <ele>321.2177734</ele>
        <time>2011-08-26T10:51:42Z</time>
      </trkpt>
      <trkpt lat="45.80506" lon="4.75509">
        <ele>319.7756348</ele>
        <time>2011-08-26T10:51:48Z</time>
      </trkpt>
      <trkpt lat="45.8052" lon="4.75506">
        <ele>319.2950439</ele>
        <time>2011-08-26T10:51:53Z</time>
      </trkpt>
      <trkpt lat="45.80531" lon="4.75503">
        <ele>318.8143311</ele>
        <time>2011-08-26T10:51:57Z</time>
      </trkpt>
      <trkpt lat="45.80543" lon="4.75497">
        <ele>322.659668</ele>
        <time>2011-08-26T10:52:02Z</time>
      </trkpt>
      <trkpt lat="45.80555" lon="4.75491">
        <ele>323.1403809</ele>
        <time>2011-08-26T10:52:07Z</time>
      </trkpt>
      <trkpt lat="45.8057" lon="4.75485">
        <ele>322.1789551</ele>
        <time>2011-08-26T10:52:13Z</time>
      </trkpt>
      <trkpt lat="45.80581" lon="4.75477">
        <ele>323.1403809</ele>
        <time>2011-08-26T10:52:18Z</time>
      </trkpt>
      <trkpt lat="45.80597" lon="4.75465">
        <ele>322.659668</ele>
        <time>2011-08-26T10:52:25Z</time>
      </trkpt>
      <trkpt lat="45.80607" lon="4.75455">
        <ele>321.2177734</ele>
        <time>2011-08-26T10:52:30Z</time>
      </trkpt>
      <trkpt lat="45.8062" lon="4.7544">
        <ele>318.3336182</ele>
        <time>2011-08-26T10:52:36Z</time>
      </trkpt>
      <trkpt lat="45.80631" lon="4.7543">
        <ele>316.8917236</ele>
        <time>2011-08-26T10:52:41Z</time>
      </trkpt>
      <trkpt lat="45.80639" lon="4.75421">
        <ele>316.8917236</ele>
        <time>2011-08-26T10:52:45Z</time>
      </trkpt>
      <trkpt lat="45.80646" lon="4.75406">
        <ele>329.388916</ele>
        <time>2011-08-26T10:52:50Z</time>
      </trkpt>
      <trkpt lat="45.80654" lon="4.7539">
        <ele>331.7921143</ele>
        <time>2011-08-26T10:52:55Z</time>
      </trkpt>
      <trkpt lat="45.80664" lon="4.7538">
        <ele>331.7921143</ele>
        <time>2011-08-26T10:53:00Z</time>
      </trkpt>
      <trkpt lat="45.80679" lon="4.75379">
        <ele>333.7147217</ele>
        <time>2011-08-26T10:53:06Z</time>
      </trkpt>
      <trkpt lat="45.8069" lon="4.75383">
        <ele>330.3502197</ele>
        <time>2011-08-26T10:53:10Z</time>
      </trkpt>
      <trkpt lat="45.80704" lon="4.75388">
        <ele>325.5435791</ele>
        <time>2011-08-26T10:53:14Z</time>
      </trkpt>
      <trkpt lat="45.80718" lon="4.75389">
        <ele>323.1403809</ele>
        <time>2011-08-26T10:53:19Z</time>
      </trkpt>
      <trkpt lat="45.8073" lon="4.75394">
        <ele>319.7756348</ele>
        <time>2011-08-26T10:53:24Z</time>
      </trkpt>
      <trkpt lat="45.80734" lon="4.75409">
        <ele>318.8143311</ele>
        <time>2011-08-26T10:53:28Z</time>
      </trkpt>
      <trkpt lat="45.8074" lon="4.75425">
        <ele>316.8917236</ele>
        <time>2011-08-26T10:53:32Z</time>
      </trkpt>
      <trkpt lat="45.80742" lon="4.75442">
        <ele>315.4498291</ele>
        <time>2011-08-26T10:53:36Z</time>
      </trkpt>
      <trkpt lat="45.8075" lon="4.75467">
        <ele>313.0465088</ele>
        <time>2011-08-26T10:53:42Z</time>
      </trkpt>
      <trkpt lat="45.80755" lon="4.75483">
        <ele>311.1237793</ele>
        <time>2011-08-26T10:53:46Z</time>
      </trkpt>
      <trkpt lat="45.80761" lon="4.75501">
        <ele>309.6818848</ele>
        <time>2011-08-26T10:53:51Z</time>
      </trkpt>
      <trkpt lat="45.8077" lon="4.75518">
        <ele>306.7978516</ele>
        <time>2011-08-26T10:53:56Z</time>
      </trkpt>
      <trkpt lat="45.80776" lon="4.75532">
        <ele>305.355957</ele>
        <time>2011-08-26T10:54:00Z</time>
      </trkpt>
      <trkpt lat="45.80778" lon="4.75536">
        <ele>305.355957</ele>
        <time>2011-08-26T10:54:01Z</time>
      </trkpt>
      <trkpt lat="45.80779" lon="4.75552">
        <ele>301.991333</ele>
        <time>2011-08-26T10:54:06Z</time>
      </trkpt>
      <trkpt lat="45.80782" lon="4.75565">
        <ele>300.5493164</ele>
        <time>2011-08-26T10:54:09Z</time>
      </trkpt>
      <trkpt lat="45.80786" lon="4.75583">
        <ele>297.6654053</ele>
        <time>2011-08-26T10:54:14Z</time>
      </trkpt>
      <trkpt lat="45.80788" lon="4.75601">
        <ele>297.6654053</ele>
        <time>2011-08-26T10:54:18Z</time>
      </trkpt>
      <trkpt lat="45.80788" lon="4.75613">
        <ele>297.1846924</ele>
        <time>2011-08-26T10:54:21Z</time>
      </trkpt>
      <trkpt lat="45.80787" lon="4.75622">
        <ele>297.6654053</ele>
        <time>2011-08-26T10:54:23Z</time>
      </trkpt>
      <trkpt lat="45.80791" lon="4.75636">
        <ele>299.1072998</ele>
        <time>2011-08-26T10:54:27Z</time>
      </trkpt>
      <trkpt lat="45.80793" lon="4.75643">
        <ele>299.1072998</ele>
        <time>2011-08-26T10:54:29Z</time>
      </trkpt>
      <trkpt lat="45.80794" lon="4.75658">
        <ele>301.5106201</ele>
        <time>2011-08-26T10:54:33Z</time>
      </trkpt>
      <trkpt lat="45.80796" lon="4.75666">
        <ele>300.0687256</ele>
        <time>2011-08-26T10:54:35Z</time>
      </trkpt>
      <trkpt lat="45.80801" lon="4.75686">
        <ele>298.1461182</ele>
        <time>2011-08-26T10:54:40Z</time>
      </trkpt>
      <trkpt lat="45.80806" lon="4.75701">
        <ele>301.5106201</ele>
        <time>2011-08-26T10:54:44Z</time>
      </trkpt>
      <trkpt lat="45.80816" lon="4.75716">
        <ele>299.5880127</ele>
        <time>2011-08-26T10:54:48Z</time>
      </trkpt>
      <trkpt lat="45.80825" lon="4.75727">
        <ele>298.626709</ele>
        <time>2011-08-26T10:54:52Z</time>
      </trkpt>
      <trkpt lat="45.80839" lon="4.75736">
        <ele>301.991333</ele>
        <time>2011-08-26T10:54:58Z</time>
      </trkpt>
      <trkpt lat="45.80846" lon="4.7575">
        <ele>302.4719238</ele>
        <time>2011-08-26T10:55:02Z</time>
      </trkpt>
      <trkpt lat="45.80848" lon="4.75764">
        <ele>301.5106201</ele>
        <time>2011-08-26T10:55:06Z</time>
      </trkpt>
      <trkpt lat="45.8085" lon="4.75779">
        <ele>301.0299072</ele>
        <time>2011-08-26T10:55:10Z</time>
      </trkpt>
      <trkpt lat="45.80853" lon="4.75794">
        <ele>301.0299072</ele>
        <time>2011-08-26T10:55:14Z</time>
      </trkpt>
      <trkpt lat="45.80854" lon="4.7581">
        <ele>305.355957</ele>
        <time>2011-08-26T10:55:18Z</time>
      </trkpt>
      <trkpt lat="45.80857" lon="4.75826">
        <ele>306.3172607</ele>
        <time>2011-08-26T10:55:22Z</time>
      </trkpt>
      <trkpt lat="45.80857" lon="4.75841">
        <ele>307.7592773</ele>
        <time>2011-08-26T10:55:26Z</time>
      </trkpt>
      <trkpt lat="45.80857" lon="4.75861">
        <ele>310.6430664</ele>
        <time>2011-08-26T10:55:31Z</time>
      </trkpt>
      <trkpt lat="45.80856" lon="4.75872">
        <ele>312.0852051</ele>
        <time>2011-08-26T10:55:34Z</time>
      </trkpt>
      <trkpt lat="45.80857" lon="4.75885">
        <ele>313.5272217</ele>
        <time>2011-08-26T10:55:38Z</time>
      </trkpt>
      <trkpt lat="45.80855" lon="4.75892">
        <ele>313.5272217</ele>
        <time>2011-08-26T10:55:40Z</time>
      </trkpt>
      <trkpt lat="45.80854" lon="4.75898">
        <ele>312.5657959</ele>
        <time>2011-08-26T10:55:42Z</time>
      </trkpt>
      <trkpt lat="45.80858" lon="4.75911">
        <ele>310.6430664</ele>
        <time>2011-08-26T10:55:46Z</time>
      </trkpt>
      <trkpt lat="45.80872" lon="4.75933">
        <ele>308.720459</ele>
        <time>2011-08-26T10:55:52Z</time>
      </trkpt>
      <trkpt lat="45.80877" lon="4.75949">
        <ele>307.2785645</ele>
        <time>2011-08-26T10:55:56Z</time>
      </trkpt>
      <trkpt lat="45.80882" lon="4.75967">
        <ele>306.7978516</ele>
        <time>2011-08-26T10:56:00Z</time>
      </trkpt>
      <trkpt lat="45.80883" lon="4.75973">
        <ele>306.7978516</ele>
        <time>2011-08-26T10:56:02Z</time>
      </trkpt>
      <trkpt lat="45.80891" lon="4.75976">
        <ele>305.8366699</ele>
        <time>2011-08-26T10:56:06Z</time>
      </trkpt>
      <trkpt lat="45.80901" lon="4.7597">
        <ele>303.4332275</ele>
        <time>2011-08-26T10:56:10Z</time>
      </trkpt>
      <trkpt lat="45.80915" lon="4.75966">
        <ele>301.5106201</ele>
        <time>2011-08-26T10:56:15Z</time>
      </trkpt>
      <trkpt lat="45.80924" lon="4.75965">
        <ele>300.0687256</ele>
        <time>2011-08-26T10:56:18Z</time>
      </trkpt>
      <trkpt lat="45.80928" lon="4.75975">
        <ele>295.2619629</ele>
        <time>2011-08-26T10:56:22Z</time>
      </trkpt>
      <trkpt lat="45.80923" lon="4.75992">
        <ele>292.8587646</ele>
        <time>2011-08-26T10:56:26Z</time>
      </trkpt>
      <trkpt lat="45.8092" lon="4.76011">
        <ele>289.9748535</ele>
        <time>2011-08-26T10:56:31Z</time>
      </trkpt>
      <trkpt lat="45.80921" lon="4.76028">
        <ele>289.0135498</ele>
        <time>2011-08-26T10:56:35Z</time>
      </trkpt>
      <trkpt lat="45.80926" lon="4.76043">
        <ele>289.4941406</ele>
        <time>2011-08-26T10:56:39Z</time>
      </trkpt>
      <trkpt lat="45.80925" lon="4.76064">
        <ele>288.532959</ele>
        <time>2011-08-26T10:56:44Z</time>
      </trkpt>
      <trkpt lat="45.80919" lon="4.76083">
        <ele>287.5714111</ele>
        <time>2011-08-26T10:56:49Z</time>
      </trkpt>
      <trkpt lat="45.80917" lon="4.76087">
        <ele>287.0908203</ele>
        <time>2011-08-26T10:56:50Z</time>
      </trkpt>
      <trkpt lat="45.8091" lon="4.76108">
        <ele>287.0908203</ele>
        <time>2011-08-26T10:56:56Z</time>
      </trkpt>
      <trkpt lat="45.80911" lon="4.7613">
        <ele>286.6102295</ele>
        <time>2011-08-26T10:57:01Z</time>
      </trkpt>
      <trkpt lat="45.80904" lon="4.76147">
        <ele>288.0522461</ele>
        <time>2011-08-26T10:57:05Z</time>
      </trkpt>
      <trkpt lat="45.80893" lon="4.76162">
        <ele>292.3781738</ele>
        <time>2011-08-26T10:57:10Z</time>
      </trkpt>
      <trkpt lat="45.80879" lon="4.76177">
        <ele>295.7426758</ele>
        <time>2011-08-26T10:57:15Z</time>
      </trkpt>
      <trkpt lat="45.80875" lon="4.76198">
        <ele>297.6654053</ele>
        <time>2011-08-26T10:57:20Z</time>
      </trkpt>
      <trkpt lat="45.80871" lon="4.76213">
        <ele>297.6654053</ele>
        <time>2011-08-26T10:57:24Z</time>
      </trkpt>
      <trkpt lat="45.80865" lon="4.76227">
        <ele>295.7426758</ele>
        <time>2011-08-26T10:57:28Z</time>
      </trkpt>
      <trkpt lat="45.80864" lon="4.76244">
        <ele>293.3393555</ele>
        <time>2011-08-26T10:57:32Z</time>
      </trkpt>
      <trkpt lat="45.80857" lon="4.76256">
        <ele>290.9361572</ele>
        <time>2011-08-26T10:57:36Z</time>
      </trkpt>
      <trkpt lat="45.80841" lon="4.76262">
        <ele>289.9748535</ele>
        <time>2011-08-26T10:57:42Z</time>
      </trkpt>
      <trkpt lat="45.80828" lon="4.76268">
        <ele>287.5714111</ele>
        <time>2011-08-26T10:57:47Z</time>
      </trkpt>
      <trkpt lat="45.80815" lon="4.76274">
        <ele>286.6102295</ele>
        <time>2011-08-26T10:57:52Z</time>
      </trkpt>
      <trkpt lat="45.80805" lon="4.76283">
        <ele>288.532959</ele>
        <time>2011-08-26T10:57:56Z</time>
      </trkpt>
      <trkpt lat="45.80793" lon="4.76295">
        <ele>291.416748</ele>
        <time>2011-08-26T10:58:01Z</time>
      </trkpt>
      <trkpt lat="45.80783" lon="4.76311">
        <ele>292.3781738</ele>
        <time>2011-08-26T10:58:06Z</time>
      </trkpt>
      <trkpt lat="45.80777" lon="4.76327">
        <ele>290.4555664</ele>
        <time>2011-08-26T10:58:11Z</time>
      </trkpt>
      <trkpt lat="45.8077" lon="4.76342">
        <ele>288.532959</ele>
        <time>2011-08-26T10:58:15Z</time>
      </trkpt>
      <trkpt lat="45.80762" lon="4.76364">
        <ele>287.5714111</ele>
        <time>2011-08-26T10:58:21Z</time>
      </trkpt>
      <trkpt lat="45.80753" lon="4.76391">
        <ele>288.0522461</ele>
        <time>2011-08-26T10:58:28Z</time>
      </trkpt>
      <trkpt lat="45.80748" lon="4.7641">
        <ele>291.416748</ele>
        <time>2011-08-26T10:58:33Z</time>
      </trkpt>
      <trkpt lat="45.80743" lon="4.7643">
        <ele>291.8974609</ele>
        <time>2011-08-26T10:58:38Z</time>
      </trkpt>
      <trkpt lat="45.80739" lon="4.76441">
        <ele>290.9361572</ele>
        <time>2011-08-26T10:58:41Z</time>
      </trkpt>
      <trkpt lat="45.80734" lon="4.76458">
        <ele>290.9361572</ele>
        <time>2011-08-26T10:58:46Z</time>
      </trkpt>
      <trkpt lat="45.80732" lon="4.76463">
        <ele>291.416748</ele>
        <time>2011-08-26T10:58:47Z</time>
      </trkpt>
      <trkpt lat="45.80729" lon="4.76478">
        <ele>292.3781738</ele>
        <time>2011-08-26T10:58:51Z</time>
      </trkpt>
      <trkpt lat="45.8072" lon="4.76497">
        <ele>292.3781738</ele>
        <time>2011-08-26T10:58:57Z</time>
      </trkpt>
      <trkpt lat="45.80709" lon="4.7651">
        <ele>293.3393555</ele>
        <time>2011-08-26T10:59:02Z</time>
      </trkpt>
      <trkpt lat="45.807" lon="4.76524">
        <ele>296.2235107</ele>
        <time>2011-08-26T10:59:07Z</time>
      </trkpt>
      <trkpt lat="45.80692" lon="4.76535">
        <ele>300.0687256</ele>
        <time>2011-08-26T10:59:11Z</time>
      </trkpt>
      <trkpt lat="45.80681" lon="4.76548">
        <ele>302.9525146</ele>
        <time>2011-08-26T10:59:16Z</time>
      </trkpt>
      <trkpt lat="45.8067" lon="4.76553">
        <ele>303.9139404</ele>
        <time>2011-08-26T10:59:20Z</time>
      </trkpt>
      <trkpt lat="45.80655" lon="4.76557">
        <ele>303.4332275</ele>
        <time>2011-08-26T10:59:25Z</time>
      </trkpt>
      <trkpt lat="45.80641" lon="4.76556">
        <ele>301.5106201</ele>
        <time>2011-08-26T10:59:30Z</time>
      </trkpt>
      <trkpt lat="45.80633" lon="4.76555">
        <ele>301.0299072</ele>
        <time>2011-08-26T10:59:33Z</time>
      </trkpt>
      <trkpt lat="45.80616" lon="4.76553">
        <ele>300.5493164</ele>
        <time>2011-08-26T10:59:39Z</time>
      </trkpt>
      <trkpt lat="45.80605" lon="4.7655">
        <ele>301.991333</ele>
        <time>2011-08-26T10:59:43Z</time>
      </trkpt>
      <trkpt lat="45.80593" lon="4.76545">
        <ele>302.4719238</ele>
        <time>2011-08-26T10:59:48Z</time>
      </trkpt>
      <trkpt lat="45.80581" lon="4.76539">
        <ele>303.4332275</ele>
        <time>2011-08-26T10:59:53Z</time>
      </trkpt>
      <trkpt lat="45.80578" lon="4.76538">
        <ele>303.9139404</ele>
        <time>2011-08-26T10:59:54Z</time>
      </trkpt>
      <trkpt lat="45.80561" lon="4.7653">
        <ele>306.3172607</ele>
        <time>2011-08-26T11:00:00Z</time>
      </trkpt>
      <trkpt lat="45.80552" lon="4.76523">
        <ele>307.2785645</ele>
        <time>2011-08-26T11:00:04Z</time>
      </trkpt>
      <trkpt lat="45.80538" lon="4.76515">
        <ele>308.720459</ele>
        <time>2011-08-26T11:00:09Z</time>
      </trkpt>
      <trkpt lat="45.80526" lon="4.76504">
        <ele>310.1624756</ele>
        <time>2011-08-26T11:00:14Z</time>
      </trkpt>
      <trkpt lat="45.80512" lon="4.76496">
        <ele>310.1624756</ele>
        <time>2011-08-26T11:00:19Z</time>
      </trkpt>
      <trkpt lat="45.80495" lon="4.76489">
        <ele>310.1624756</ele>
        <time>2011-08-26T11:00:25Z</time>
      </trkpt>
      <trkpt lat="45.80493" lon="4.76488">
        <ele>310.6430664</ele>
        <time>2011-08-26T11:00:26Z</time>
      </trkpt>
      <trkpt lat="45.80483" lon="4.76491">
        <ele>310.6430664</ele>
        <time>2011-08-26T11:00:30Z</time>
      </trkpt>
      <trkpt lat="45.80468" lon="4.76503">
        <ele>308.720459</ele>
        <time>2011-08-26T11:00:36Z</time>
      </trkpt>
      <trkpt lat="45.80456" lon="4.76515">
        <ele>308.720459</ele>
        <time>2011-08-26T11:00:41Z</time>
      </trkpt>
      <trkpt lat="45.8045" lon="4.76529">
        <ele>308.2398682</ele>
        <time>2011-08-26T11:00:45Z</time>
      </trkpt>
      <trkpt lat="45.80446" lon="4.76548">
        <ele>307.2785645</ele>
        <time>2011-08-26T11:00:50Z</time>
      </trkpt>
      <trkpt lat="45.80439" lon="4.76566">
        <ele>307.2785645</ele>
        <time>2011-08-26T11:00:55Z</time>
      </trkpt>
      <trkpt lat="45.80431" lon="4.76577">
        <ele>306.7978516</ele>
        <time>2011-08-26T11:00:59Z</time>
      </trkpt>
      <trkpt lat="45.80426" lon="4.76582">
        <ele>306.3172607</ele>
        <time>2011-08-26T11:01:01Z</time>
      </trkpt>
      <trkpt lat="45.80414" lon="4.76593">
        <ele>305.355957</ele>
        <time>2011-08-26T11:01:06Z</time>
      </trkpt>
      <trkpt lat="45.80411" lon="4.76595">
        <ele>305.355957</ele>
        <time>2011-08-26T11:01:07Z</time>
      </trkpt>
      <trkpt lat="45.804" lon="4.76608">
        <ele>305.355957</ele>
        <time>2011-08-26T11:01:12Z</time>
      </trkpt>
      <trkpt lat="45.80387" lon="4.76623">
        <ele>304.8752441</ele>
        <time>2011-08-26T11:01:18Z</time>
      </trkpt>
      <trkpt lat="45.80374" lon="4.76639">
        <ele>305.8366699</ele>
        <time>2011-08-26T11:01:24Z</time>
      </trkpt>
      <trkpt lat="45.80365" lon="4.76654">
        <ele>304.3946533</ele>
        <time>2011-08-26T11:01:29Z</time>
      </trkpt>
      <trkpt lat="45.80363" lon="4.76657">
        <ele>303.9139404</ele>
        <time>2011-08-26T11:01:30Z</time>
      </trkpt>
      <trkpt lat="45.80352" lon="4.7667">
        <ele>302.4719238</ele>
        <time>2011-08-26T11:01:35Z</time>
      </trkpt>
      <trkpt lat="45.80341" lon="4.76683">
        <ele>303.4332275</ele>
        <time>2011-08-26T11:01:40Z</time>
      </trkpt>
      <trkpt lat="45.80329" lon="4.76695">
        <ele>303.4332275</ele>
        <time>2011-08-26T11:01:45Z</time>
      </trkpt>
      <trkpt lat="45.8032" lon="4.76707">
        <ele>303.9139404</ele>
        <time>2011-08-26T11:01:49Z</time>
      </trkpt>
      <trkpt lat="45.80307" lon="4.76717">
        <ele>303.4332275</ele>
        <time>2011-08-26T11:01:54Z</time>
      </trkpt>
      <trkpt lat="45.80294" lon="4.76734">
        <ele>303.9139404</ele>
        <time>2011-08-26T11:02:00Z</time>
      </trkpt>
      <trkpt lat="45.80281" lon="4.76751">
        <ele>304.3946533</ele>
        <time>2011-08-26T11:02:06Z</time>
      </trkpt>
      <trkpt lat="45.80272" lon="4.76765">
        <ele>305.355957</ele>
        <time>2011-08-26T11:02:11Z</time>
      </trkpt>
      <trkpt lat="45.80262" lon="4.7678">
        <ele>305.8366699</ele>
        <time>2011-08-26T11:02:16Z</time>
      </trkpt>
      <trkpt lat="45.80251" lon="4.76795">
        <ele>306.7978516</ele>
        <time>2011-08-26T11:02:21Z</time>
      </trkpt>
      <trkpt lat="45.8024" lon="4.76809">
        <ele>308.2398682</ele>
        <time>2011-08-26T11:02:26Z</time>
      </trkpt>
      <trkpt lat="45.80229" lon="4.76826">
        <ele>311.1237793</ele>
        <time>2011-08-26T11:02:31Z</time>
      </trkpt>
      <trkpt lat="45.80218" lon="4.76849">
        <ele>313.5272217</ele>
        <time>2011-08-26T11:02:37Z</time>
      </trkpt>
      <trkpt lat="45.80207" lon="4.76864">
        <ele>314.0078125</ele>
        <time>2011-08-26T11:02:42Z</time>
      </trkpt>
      <trkpt lat="45.80195" lon="4.76879">
        <ele>315.4498291</ele>
        <time>2011-08-26T11:02:47Z</time>
      </trkpt>
      <trkpt lat="45.80185" lon="4.76892">
        <ele>315.9304199</ele>
        <time>2011-08-26T11:02:51Z</time>
      </trkpt>
      <trkpt lat="45.80175" lon="4.76905">
        <ele>315.9304199</ele>
        <time>2011-08-26T11:02:55Z</time>
      </trkpt>
      <trkpt lat="45.80168" lon="4.76917">
        <ele>316.4110107</ele>
        <time>2011-08-26T11:02:59Z</time>
      </trkpt>
      <trkpt lat="45.80159" lon="4.76927">
        <ele>316.4110107</ele>
        <time>2011-08-26T11:03:03Z</time>
      </trkpt>
      <trkpt lat="45.80149" lon="4.7694">
        <ele>317.3724365</ele>
        <time>2011-08-26T11:03:07Z</time>
      </trkpt>
      <trkpt lat="45.80139" lon="4.76956">
        <ele>317.8530273</ele>
        <time>2011-08-26T11:03:12Z</time>
      </trkpt>
      <trkpt lat="45.80129" lon="4.76971">
        <ele>320.7370605</ele>
        <time>2011-08-26T11:03:17Z</time>
      </trkpt>
      <trkpt lat="45.8012" lon="4.76984">
        <ele>319.2950439</ele>
        <time>2011-08-26T11:03:21Z</time>
      </trkpt>
      <trkpt lat="45.80109" lon="4.76998">
        <ele>315.9304199</ele>
        <time>2011-08-26T11:03:26Z</time>
      </trkpt>
      <trkpt lat="45.801" lon="4.77011">
        <ele>314.0078125</ele>
        <time>2011-08-26T11:03:31Z</time>
      </trkpt>
      <trkpt lat="45.80102" lon="4.77028">
        <ele>313.0465088</ele>
        <time>2011-08-26T11:03:36Z</time>
      </trkpt>
    </trkseg>
  </trk>
</gpx>